Observation data for Persimmon Gap on 08/15/2019      Previous  Date       Current Mesonet Observations  Soil Data  Daily Summary Page  Observations in Plain Language
KPG1 150500Z 03013KT 26/17 A3011 RMK A01 T02580172  RH  059%=      5-min Rain = 0
KPG1 150501Z 03013KT 26/17 A3011 RMK A01 T02590172  RH  059%=      5-min Rain = 0
KPG1 150502Z 03012KT 26/17 A3011 RMK A01 T02580173  RH  059%=      5-min Rain = 0
KPG1 150503Z 04012KT 26/17 A3011 RMK A01 T02570173  RH  060%=      5-min Rain = 0
KPG1 150504Z 05014KT 26/17 A3011 RMK A01 T02560173  RH  060%=      5-min Rain = 0
KPG1 150505Z 04012KT 26/17 A3011 RMK A01 T02550172  RH  060%=      5-min Rain = 0
KPG1 150506Z 03011KT 26/17 A3011 RMK A01 T02550172  RH  060%=      5-min Rain = 0
KPG1 150507Z 03011KT 25/17 A3011 RMK A01 T02540172  RH  061%=      5-min Rain = 0
KPG1 150508Z 02015KT 25/17 A3011 RMK A01 T02540173  RH  061%=      5-min Rain = 0
KPG1 150509Z 02014KT 25/17 A3011 RMK A01 T02530173  RH  061%=      5-min Rain = 0
KPG1 150510Z 03015KT 25/17 A3011 RMK A01 T02530172  RH  061%=      5-min Rain = 0
KPG1 150511Z 03014KT 25/17 A3011 RMK A01 T02530172  RH  061%=      5-min Rain = 0
KPG1 150512Z 02013KT 25/17 A3011 RMK A01 T02530172  RH  061%=      5-min Rain = 0
KPG1 150513Z 02013KT 25/17 A3011 RMK A01 T02530172  RH  061%=      5-min Rain = 0
KPG1 150514Z 02012KT 25/17 A3011 RMK A01 T02520172  RH  061%=      5-min Rain = 0
KPG1 150515Z 02010KT 25/17 A3011 RMK A01 T02520173  RH  061%=      5-min Rain = 0
KPG1 150516Z 01010KT 25/17 A301 RMK A01 T02520173  RH  061%=      5-min Rain = 0
KPG1 150517Z 00014KT 25/17 A301 RMK A01 T02520173  RH  061%=      5-min Rain = 0
KPG1 150518Z 36011KT 25/17 A301 RMK A01 T02530172  RH  061%=      5-min Rain = 0
KPG1 150519Z 00012KT 25/17 A301 RMK A01 T02530172  RH  061%=      5-min Rain = 0
KPG1 150520Z 01014KT 25/17 A301 RMK A01 T02540172  RH  061%=      5-min Rain = 0
KPG1 150521Z 01012KT 25/17 A301 RMK A01 T02540172  RH  060%=      5-min Rain = 0
KPG1 150522Z 02013KT 26/17 A301 RMK A01 T02550172  RH  060%=      5-min Rain = 0
KPG1 150523Z 01012KT 26/17 A301 RMK A01 T02550172  RH  060%=      5-min Rain = 0
KPG1 150524Z 01012KT 26/17 A301 RMK A01 T02550172  RH  060%=      5-min Rain = 0
KPG1 150525Z 02010KT 26/17 A301 RMK A01 T02550172  RH  060%=      5-min Rain = 0
KPG1 150526Z 01009KT 25/17 A301 RMK A01 T02540173  RH  061%=      5-min Rain = 0
KPG1 150527Z 01012KT 25/17 A301 RMK A01 T02530172  RH  061%=      5-min Rain = 0
KPG1 150528Z 01012KT 25/17 A301 RMK A01 T02540172  RH  061%=      5-min Rain = 0
KPG1 150529Z 01012KT 25/17 A301 RMK A01 T02540172  RH  060%=      5-min Rain = 0
KPG1 150530Z 01012KT 26/17 A301 RMK A01 T02550172  RH  060%=      5-min Rain = 0
KPG1 150531Z 01011KT 26/17 A301 RMK A01 T02550172  RH  060%=      5-min Rain = 0
KPG1 150532Z 01011KT 26/17 A301 RMK A01 T02550172  RH  060%=      5-min Rain = 0
KPG1 150533Z 01010KT 26/17 A301 RMK A01 T02560172  RH  060%=      5-min Rain = 0
KPG1 150534Z 01010KT 26/17 A301 RMK A01 T02560172  RH  060%=      5-min Rain = 0
KPG1 150535Z 02010KT 26/17 A301 RMK A01 T02550172  RH  060%=      5-min Rain = 0
KPG1 150536Z 01011KT 26/17 A301 RMK A01 T02550172  RH  060%=      5-min Rain = 0
KPG1 150537Z 01011KT 26/17 A301 RMK A01 T02550171  RH  060%=      5-min Rain = 0
KPG1 150538Z 01010KT 26/17 A301 RMK A01 T02550172  RH  060%=      5-min Rain = 0
KPG1 150539Z 02010KT 26/17 A301 RMK A01 T02550171  RH  060%=      5-min Rain = 0
KPG1 150540Z 01010KT 26/17 A3011 RMK A01 T02550171  RH  060%=      5-min Rain = 0
KPG1 150541Z 01010KT 26/17 A3011 RMK A01 T02550171  RH  060%=      5-min Rain = 0
KPG1 150542Z 01009KT 26/17 A3011 RMK A01 T02550172  RH  060%=      5-min Rain = 0
KPG1 150543Z 01010KT 26/17 A3011 RMK A01 T02550172  RH  060%=      5-min Rain = 0
KPG1 150544Z 01011KT 25/17 A3011 RMK A01 T02540171  RH  060%=      5-min Rain = 0
KPG1 150545Z 01011KT 25/17 A3011 RMK A01 T02540171  RH  060%=      5-min Rain = 0
KPG1 150546Z 01010KT 26/17 A3011 RMK A01 T02550171  RH  060%=      5-min Rain = 0
KPG1 150547Z 01008KT 25/17 A3011 RMK A01 T02540171  RH  060%=      5-min Rain = 0
KPG1 150548Z 00008KT 25/17 A3011 RMK A01 T02540171  RH  060%=      5-min Rain = 0
KPG1 150549Z 01008KT 25/17 A3011 RMK A01 T02540171  RH  060%=      5-min Rain = 0
KPG1 150550Z 01009KT 25/17 A3011 RMK A01 T02530171  RH  060%=      5-min Rain = 0
KPG1 150551Z 01009KT 25/17 A3011 RMK A01 T02540171  RH  060%=      5-min Rain = 0
KPG1 150552Z 01008KT 25/17 A3011 RMK A01 T02530171  RH  060%=      5-min Rain = 0
KPG1 150553Z 01008KT 25/17 A3011 RMK A01 T02530171  RH  060%=      5-min Rain = 0
KPG1 150554Z 01009KT 25/17 A3011 RMK A01 T02530171  RH  060%=      5-min Rain = 0
KPG1 150555Z 00009KT 25/17 A3011 RMK A01 T02540171  RH  060%=      5-min Rain = 0
KPG1 150556Z 00008KT 25/17 A3011 RMK A01 T02540171  RH  060%=      5-min Rain = 0
KPG1 150557Z 01008KT 25/17 A3011 RMK A01 T02540171  RH  060%=      5-min Rain = 0
KPG1 150558Z 01008KT 26/17 A3011 RMK A01 T02550171  RH  060%=      5-min Rain = 0
KPG1 150559Z 00008KT 26/17 A3011 RMK A01 T02550171  RH  060%=      5-min Rain = 0
KPG1 150600Z 36007KT 26/17 A3011 RMK A01 T02550171  RH  060%=      5-min Rain = 0
KPG1 150601Z 00008KT 26/17 A3011 RMK A01 T02550171  RH  060%=      5-min Rain = 0
KPG1 150602Z 36008KT 26/17 A3011 RMK A01 T02550171  RH  060%=      5-min Rain = 0
KPG1 150603Z 35007KT 25/17 A3011 RMK A01 T02540170  RH  060%=      5-min Rain = 0
KPG1 150604Z 35007KT 26/17 A3011 RMK A01 T02550170  RH  059%=      5-min Rain = 0
KPG1 150605Z 36007KT 26/17 A3011 RMK A01 T02550170  RH  059%=      5-min Rain = 0
KPG1 150606Z 36007KT 26/17 A3011 RMK A01 T02550171  RH  059%=      5-min Rain = 0
KPG1 150607Z 36007KT 26/17 A3011 RMK A01 T02560170  RH  059%=      5-min Rain = 0
KPG1 150608Z 00006KT 26/17 A3011 RMK A01 T02560170  RH  059%=      5-min Rain = 0
KPG1 150609Z 01006KT 26/17 A3011 RMK A01 T02570170  RH  059%=      5-min Rain = 0
KPG1 150610Z 02006KT 26/17 A3011 RMK A01 T02560170  RH  059%=      5-min Rain = 0
KPG1 150611Z 02006KT 26/17 A3011 RMK A01 T02560170  RH  059%=      5-min Rain = 0
KPG1 150612Z 02006KT 26/17 A3011 RMK A01 T02560170  RH  059%=      5-min Rain = 0
KPG1 150613Z 02008KT 26/17 A3011 RMK A01 T02550170  RH  059%=      5-min Rain = 0
KPG1 150614Z 02007KT 26/17 A3011 RMK A01 T02550170  RH  059%=      5-min Rain = 0
KPG1 150615Z 02008KT 26/17 A3011 RMK A01 T02560170  RH  059%=      5-min Rain = 0
KPG1 150616Z 02008KT 26/17 A3011 RMK A01 T02560169  RH  059%=      5-min Rain = 0
KPG1 150617Z 02007KT 26/17 A3011 RMK A01 T02560170  RH  059%=      5-min Rain = 0
KPG1 150618Z 02007KT 26/17 A3011 RMK A01 T02550170  RH  059%=      5-min Rain = 0
KPG1 150619Z 02007KT 25/17 A3011 RMK A01 T02540170  RH  060%=      5-min Rain = 0
KPG1 150620Z 02008KT 25/17 A3011 RMK A01 T02530170  RH  060%=      5-min Rain = 0
KPG1 150621Z 02008KT 25/17 A3011 RMK A01 T02540169  RH  060%=      5-min Rain = 0
KPG1 150622Z 02007KT 26/17 A3011 RMK A01 T02550170  RH  059%=      5-min Rain = 0
KPG1 150623Z 02007KT 26/17 A3012 RMK A01 T02550170  RH  059%=      5-min Rain = 0
KPG1 150624Z 03008KT 25/17 A3012 RMK A01 T02540171  RH  060%=      5-min Rain = 0
KPG1 150625Z 02007KT 25/17 A3012 RMK A01 T02520171  RH  061%=      5-min Rain = 0
KPG1 150626Z 02007KT 25/17 A3012 RMK A01 T02500171  RH  061%=      5-min Rain = 0
KPG1 150627Z 01008KT 25/17 A3012 RMK A01 T02500171  RH  061%=      5-min Rain = 0
KPG1 150628Z 01007KT 25/17 A3012 RMK A01 T02510170  RH  061%=      5-min Rain = 0
KPG1 150629Z 01007KT 25/17 A3012 RMK A01 T02530169  RH  060%=      5-min Rain = 0
KPG1 150630Z 36007KT 26/17 A3012 RMK A01 T02550169  RH  059%=      5-min Rain = 0
KPG1 150631Z 00005KT 26/17 A3012 RMK A01 T02560169  RH  059%=      5-min Rain = 0
KPG1 150632Z 00005KT 26/17 A3012 RMK A01 T02570169  RH  058%=      5-min Rain = 0
KPG1 150633Z 35005KT 26/17 A3012 RMK A01 T02570169  RH  058%=      5-min Rain = 0
KPG1 150634Z 35006KT 26/17 A3012 RMK A01 T02570169  RH  058%=      5-min Rain = 0
KPG1 150635Z 36005KT 26/17 A3012 RMK A01 T02570169  RH  058%=      5-min Rain = 0
KPG1 150636Z 36005KT 26/17 A3012 RMK A01 T02570169  RH  058%=      5-min Rain = 0
KPG1 150637Z 36004KT 26/17 A3012 RMK A01 T02570169  RH  058%=      5-min Rain = 0
KPG1 150638Z 36004KT 26/17 A3012 RMK A01 T02560169  RH  059%=      5-min Rain = 0
KPG1 150639Z 01006KT 26/17 A3012 RMK A01 T02550169  RH  059%=      5-min Rain = 0
KPG1 150640Z 02005KT 26/17 A3012 RMK A01 T02550169  RH  059%=      5-min Rain = 0
KPG1 150641Z 02005KT 26/17 A3012 RMK A01 T02550169  RH  059%=      5-min Rain = 0
KPG1 150642Z 04004KT 26/17 A3012 RMK A01 T02560169  RH  059%=      5-min Rain = 0
KPG1 150643Z 04005KT 26/17 A3012 RMK A01 T02550170  RH  059%=      5-min Rain = 0
KPG1 150644Z 04004KT 25/17 A3012 RMK A01 T02530169  RH  060%=      5-min Rain = 0
KPG1 150645Z 04004KT 25/17 A3012 RMK A01 T02510170  RH  061%=      5-min Rain = 0
KPG1 150646Z 02004KT 25/17 A3012 RMK A01 T02500170  RH  061%=      5-min Rain = 0
KPG1 150647Z 01005KT 25/17 A3012 RMK A01 T02490170  RH  062%=      5-min Rain = 0
KPG1 150648Z 01005KT 25/17 A3012 RMK A01 T02480170  RH  062%=      5-min Rain = 0
KPG1 150649Z 02005KT 25/17 A3012 RMK A01 T02490170  RH  062%=      5-min Rain = 0
KPG1 150650Z 02006KT 25/17 A3012 RMK A01 T02480170  RH  062%=      5-min Rain = 0
KPG1 150651Z 03007KT 25/17 A3012 RMK A01 T02480170  RH  062%=      5-min Rain = 0
KPG1 150652Z 03006KT 25/17 A3012 RMK A01 T02470170  RH  062%=      5-min Rain = 0
KPG1 150653Z 03006KT 25/17 A3012 RMK A01 T02460170  RH  063%=      5-min Rain = 0
KPG1 150654Z 02005KT 25/17 A3012 RMK A01 T02460170  RH  063%=      5-min Rain = 0
KPG1 150655Z 03005KT 25/17 A3012 RMK A01 T02450170  RH  063%=      5-min Rain = 0
KPG1 150656Z 03005KT 24/17 A3012 RMK A01 T02440170  RH  063%=      5-min Rain = 0
KPG1 150657Z 02003KT 24/17 A3012 RMK A01 T02440169  RH  063%=      5-min Rain = 0
KPG1 150658Z 02003KT 24/17 A3012 RMK A01 T02440170  RH  063%=      5-min Rain = 0
KPG1 150659Z 03002KT 24/17 A3012 RMK A01 T02440170  RH  063%=      5-min Rain = 0
KPG1 150700Z 02002KT 24/17 A3012 RMK A01 T02440170  RH  063%=      5-min Rain = 0
KPG1 150701Z 01002KT 24/17 A3012 RMK A01 T02440170  RH  063%=      5-min Rain = 0
KPG1 150702Z 01002KT 24/17 A3012 RMK A01 T02440170  RH  064%=      5-min Rain = 0
KPG1 150703Z 02002KT 24/17 A3012 RMK A01 T02430169  RH  063%=      5-min Rain = 0
KPG1 150704Z 03001KT 24/17 A3012 RMK A01 T02430169  RH  063%=      5-min Rain = 0
KPG1 150705Z 03001KT 24/17 A3012 RMK A01 T02430169  RH  063%=      5-min Rain = 0
KPG1 150706Z 04001KT 24/17 A3012 RMK A01 T02430169  RH  063%=      5-min Rain = 0
KPG1 150707Z 08001KT 24/17 A3012 RMK A01 T02430170  RH  063%=      5-min Rain = 0
KPG1 150708Z 10001KT 24/17 A3012 RMK A01 T02440170  RH  063%=      5-min Rain = 0
KPG1 150709Z 13001KT 24/17 A3012 RMK A01 T02440170  RH  063%=      5-min Rain = 0
KPG1 150710Z 20001KT 24/17 A3012 RMK A01 T02440170  RH  064%=      5-min Rain = 0
KPG1 150711Z 19001KT 24/17 A3012 RMK A01 T02440169  RH  063%=      5-min Rain = 0
KPG1 150712Z 15001KT 25/17 A3012 RMK A01 T02450169  RH  063%=      5-min Rain = 0
KPG1 150713Z 18001KT 25/17 A3012 RMK A01 T02450169  RH  062%=      5-min Rain = 0
KPG1 150714Z 15001KT 25/17 A3012 RMK A01 T02460169  RH  062%=      5-min Rain = 0
KPG1 150715Z 11001KT 25/17 A3011 RMK A01 T02470169  RH  062%=      5-min Rain = 0
KPG1 150716Z 10001KT 25/17 A3011 RMK A01 T02470170  RH  062%=      5-min Rain = 0
KPG1 150717Z 10002KT 25/17 A3011 RMK A01 T02470169  RH  062%=      5-min Rain = 0
KPG1 150718Z 11001KT 25/17 A3011 RMK A01 T02470170  RH  062%=      5-min Rain = 0
KPG1 150719Z 11000KT 25/17 A3011 RMK A01 T02470171  RH  063%=      5-min Rain = 0
KPG1 150720Z 00000KT 25/17 A3011 RMK A01 T02460171  RH  063%=      5-min Rain = 0
KPG1 150721Z 00000KT 25/17 A3011 RMK A01 T02450170  RH  063%=      5-min Rain = 0
KPG1 150722Z 00000KT 25/17 A3011 RMK A01 T02450171  RH  064%=      5-min Rain = 0
KPG1 150723Z 00000KT 24/17 A3011 RMK A01 T02440171  RH  064%=      5-min Rain = 0
KPG1 150724Z 14000KT 24/17 A3011 RMK A01 T02440170  RH  064%=      5-min Rain = 0
KPG1 150725Z 12001KT 24/17 A3011 RMK A01 T02440170  RH  063%=      5-min Rain = 0
KPG1 150726Z 13001KT 24/17 A3011 RMK A01 T02430169  RH  063%=      5-min Rain = 0
KPG1 150727Z 11001KT 24/17 A3011 RMK A01 T02440169  RH  063%=      5-min Rain = 0
KPG1 150728Z 08001KT 25/17 A3011 RMK A01 T02450169  RH  063%=      5-min Rain = 0
KPG1 150729Z 09001KT 25/17 A3011 RMK A01 T02450169  RH  063%=      5-min Rain = 0
KPG1 150730Z 10001KT 25/17 A3011 RMK A01 T02450170  RH  063%=      5-min Rain = 0
KPG1 150731Z 10001KT 25/17 A3011 RMK A01 T02450172  RH  064%=      5-min Rain = 0
KPG1 150732Z 09001KT 24/17 A3011 RMK A01 T02440172  RH  064%=      5-min Rain = 0
KPG1 150733Z 09002KT 24/17 A3011 RMK A01 T02430172  RH  065%=      5-min Rain = 0
KPG1 150734Z 09002KT 24/17 A3011 RMK A01 T02410172  RH  065%=      5-min Rain = 0
KPG1 150735Z 05003KT 24/17 A3011 RMK A01 T02400173  RH  066%=      5-min Rain = 0
KPG1 150736Z 03005KT 24/17 A3011 RMK A01 T02400171  RH  066%=      5-min Rain = 0
KPG1 150737Z 02006KT 24/17 A3011 RMK A01 T02400169  RH  064%=      5-min Rain = 0
KPG1 150738Z 03006KT 24/17 A3011 RMK A01 T02430169  RH  063%=      5-min Rain = 0
KPG1 150739Z 03006KT 24/17 A3011 RMK A01 T02440168  RH  062%=      5-min Rain = 0
KPG1 150740Z 02007KT 25/17 A3011 RMK A01 T02460168  RH  062%=      5-min Rain = 0
KPG1 150741Z 01006KT 25/17 A3011 RMK A01 T02470168  RH  061%=      5-min Rain = 0
KPG1 150742Z 01007KT 25/17 A3011 RMK A01 T02470167  RH  061%=      5-min Rain = 0
KPG1 150743Z 01005KT 25/17 A3011 RMK A01 T02490167  RH  060%=      5-min Rain = 0
KPG1 150744Z 01006KT 25/17 A3011 RMK A01 T02510167  RH  060%=      5-min Rain = 0
KPG1 150745Z 02005KT 25/17 A3011 RMK A01 T02520167  RH  059%=      5-min Rain = 0
KPG1 150746Z 01006KT 25/17 A3011 RMK A01 T02530167  RH  059%=      5-min Rain = 0
KPG1 150747Z 01006KT 25/17 A3011 RMK A01 T02530167  RH  059%=      5-min Rain = 0
KPG1 150748Z 03005KT 25/17 A3011 RMK A01 T02540167  RH  059%=      5-min Rain = 0
KPG1 150749Z 02005KT 25/17 A3011 RMK A01 T02540166  RH  058%=      5-min Rain = 0
KPG1 150750Z 01003KT 25/17 A3011 RMK A01 T02540167  RH  058%=      5-min Rain = 0
KPG1 150751Z 01003KT 25/17 A3011 RMK A01 T02540167  RH  058%=      5-min Rain = 0
KPG1 150752Z 03001KT 25/17 A3011 RMK A01 T02540169  RH  059%=      5-min Rain = 0
KPG1 150753Z 36004KT 25/17 A3011 RMK A01 T02530169  RH  060%=      5-min Rain = 0
KPG1 150754Z 07001KT 25/17 A3011 RMK A01 T02520168  RH  060%=      5-min Rain = 0
KPG1 150755Z 19001KT 25/17 A3011 RMK A01 T02520170  RH  061%=      5-min Rain = 0
KPG1 150756Z 24002KT 25/17 A3011 RMK A01 T02480172  RH  062%=      5-min Rain = 0
KPG1 150757Z 26003KT 25/17 A3011 RMK A01 T02460172  RH  063%=      5-min Rain = 0
KPG1 150758Z 24002KT 24/17 A3011 RMK A01 T02440172  RH  064%=      5-min Rain = 0
KPG1 150759Z 24002KT 24/17 A3011 RMK A01 T02430172  RH  064%=      5-min Rain = 0
KPG1 150800Z 25003KT 24/17 A3011 RMK A01 T02420172  RH  065%=      5-min Rain = 0
KPG1 150801Z 23003KT 24/17 A3011 RMK A01 T02420173  RH  065%=      5-min Rain = 0
KPG1 150802Z 24002KT 24/17 A3011 RMK A01 T02400173  RH  066%=      5-min Rain = 0
KPG1 150803Z 20001KT 24/17 A3011 RMK A01 T02400174  RH  066%=      5-min Rain = 0
KPG1 150804Z 13001KT 24/17 A3011 RMK A01 T02390174  RH  067%=      5-min Rain = 0
KPG1 150805Z 11001KT 24/17 A3011 RMK A01 T02390173  RH  067%=      5-min Rain = 0
KPG1 150806Z 12001KT 24/17 A3011 RMK A01 T02390173  RH  067%=      5-min Rain = 0
KPG1 150807Z 15001KT 24/17 A301 RMK A01 T02380173  RH  067%=      5-min Rain = 0
KPG1 150808Z 17002KT 24/17 A301 RMK A01 T02380173  RH  067%=      5-min Rain = 0
KPG1 150809Z 17001KT 24/17 A301 RMK A01 T02390173  RH  067%=      5-min Rain = 0
KPG1 150810Z 18002KT 24/17 A301 RMK A01 T02380174  RH  067%=      5-min Rain = 0
KPG1 150811Z 19003KT 24/17 A301 RMK A01 T02380174  RH  067%=      5-min Rain = 0
KPG1 150812Z 18002KT 24/17 A301 RMK A01 T02380174  RH  068%=      5-min Rain = 0
KPG1 150813Z 16001KT 24/17 A301 RMK A01 T02370174  RH  068%=      5-min Rain = 0
KPG1 150814Z 19002KT 24/17 A301 RMK A01 T02370174  RH  068%=      5-min Rain = 0
KPG1 150815Z 19002KT 24/17 A301 RMK A01 T02370174  RH  068%=      5-min Rain = 0
KPG1 150816Z 20002KT 24/17 A301 RMK A01 T02370174  RH  068%=      5-min Rain = 0
KPG1 150817Z 21002KT 24/17 A301 RMK A01 T02370174  RH  068%=      5-min Rain = 0
KPG1 150818Z 20001KT 24/17 A301 RMK A01 T02370174  RH  068%=      5-min Rain = 0
KPG1 150819Z 21002KT 24/17 A3011 RMK A01 T02370174  RH  068%=      5-min Rain = 0
KPG1 150820Z 18002KT 24/18 A3011 RMK A01 T02370175  RH  068%=      5-min Rain = 0
KPG1 150821Z 19002KT 24/18 A3011 RMK A01 T02370175  RH  068%=      5-min Rain = 0
KPG1 150822Z 21002KT 24/17 A3011 RMK A01 T02360174  RH  068%=      5-min Rain = 0
KPG1 150823Z 22003KT 24/18 A3011 RMK A01 T02360175  RH  069%=      5-min Rain = 0
KPG1 150824Z 21003KT 24/18 A3011 RMK A01 T02350175  RH  069%=      5-min Rain = 0
KPG1 150825Z 23003KT 24/18 A3011 RMK A01 T02350175  RH  069%=      5-min Rain = 0
KPG1 150826Z 23003KT 23/18 A3011 RMK A01 T02340175  RH  069%=      5-min Rain = 0
KPG1 150827Z 23002KT 23/18 A3011 RMK A01 T02340175  RH  069%=      5-min Rain = 0
KPG1 150828Z 24002KT 23/18 A3011 RMK A01 T02340175  RH  070%=      5-min Rain = 0
KPG1 150829Z 25003KT 23/18 A3011 RMK A01 T02340175  RH  069%=      5-min Rain = 0
KPG1 150830Z 26003KT 23/18 A3011 RMK A01 T02340175  RH  069%=      5-min Rain = 0
KPG1 150831Z 26003KT 23/18 A3011 RMK A01 T02340176  RH  070%=      5-min Rain = 0
KPG1 150832Z 27003KT 23/18 A3011 RMK A01 T02330175  RH  069%=      5-min Rain = 0
KPG1 150833Z 28003KT 23/17 A3011 RMK A01 T02330174  RH  069%=      5-min Rain = 0
KPG1 150834Z 29003KT 23/17 A3011 RMK A01 T02340174  RH  069%=      5-min Rain = 0
KPG1 150835Z 29001KT 24/18 A3011 RMK A01 T02350175  RH  069%=      5-min Rain = 0
KPG1 150836Z 00000KT 24/18 A3011 RMK A01 T02350175  RH  069%=      5-min Rain = 0
KPG1 150837Z 01000KT 24/18 A3011 RMK A01 T02350175  RH  069%=      5-min Rain = 0
KPG1 150838Z 08001KT 24/18 A3011 RMK A01 T02350176  RH  069%=      5-min Rain = 0
KPG1 150839Z 09000KT 24/18 A3011 RMK A01 T02350178  RH  070%=      5-min Rain = 0
KPG1 150840Z 00000KT 23/18 A3011 RMK A01 T02340178  RH  071%=      5-min Rain = 0
KPG1 150841Z 00000KT 23/18 A3011 RMK A01 T02340177  RH  070%=      5-min Rain = 0
KPG1 150842Z 32001KT 23/18 A3011 RMK A01 T02340176  RH  070%=      5-min Rain = 0
KPG1 150843Z 33001KT 23/18 A3011 RMK A01 T02330175  RH  070%=      5-min Rain = 0
KPG1 150844Z 34000KT 23/18 A3011 RMK A01 T02340175  RH  069%=      5-min Rain = 0
KPG1 150845Z 15000KT 24/18 A3011 RMK A01 T02350175  RH  069%=      5-min Rain = 0
KPG1 150846Z 15001KT 24/17 A3011 RMK A01 T02350174  RH  069%=      5-min Rain = 0
KPG1 150847Z 16001KT 24/17 A3011 RMK A01 T02360174  RH  068%=      5-min Rain = 0
KPG1 150848Z 00000KT 24/17 A3011 RMK A01 T02370174  RH  068%=      5-min Rain = 0
KPG1 150849Z 00000KT 24/18 A3011 RMK A01 T02370175  RH  068%=      5-min Rain = 0
KPG1 150850Z 00000KT 24/17 A3011 RMK A01 T02370174  RH  068%=      5-min Rain = 0
KPG1 150851Z 14000KT 24/17 A3011 RMK A01 T02380173  RH  067%=      5-min Rain = 0
KPG1 150852Z 11000KT 24/18 A3011 RMK A01 T02390176  RH  068%=      5-min Rain = 0
KPG1 150853Z 10000KT 24/18 A3011 RMK A01 T02390177  RH  068%=      5-min Rain = 0
KPG1 150854Z 10000KT 24/18 A3011 RMK A01 T02380177  RH  068%=      5-min Rain = 0
KPG1 150855Z 10001KT 24/18 A3011 RMK A01 T02390176  RH  068%=      5-min Rain = 0
KPG1 150856Z 07001KT 24/18 A3011 RMK A01 T02380175  RH  068%=      5-min Rain = 0
KPG1 150857Z 07000KT 24/18 A3011 RMK A01 T02390177  RH  068%=      5-min Rain = 0
KPG1 150858Z 00001KT 24/18 A3011 RMK A01 T02380176  RH  068%=      5-min Rain = 0
KPG1 150859Z 34000KT 24/18 A3011 RMK A01 T02380177  RH  068%=      5-min Rain = 0
KPG1 150900Z 00000KT 24/18 A3011 RMK A01 T02390175  RH  067%=      5-min Rain = 0
KPG1 150901Z 02000KT 24/17 A3011 RMK A01 T02390174  RH  067%=      5-min Rain = 0
KPG1 150902Z 12000KT 24/17 A3011 RMK A01 T02400174  RH  066%=      5-min Rain = 0
KPG1 150903Z 30000KT 24/17 A3011 RMK A01 T02410173  RH  066%=      5-min Rain = 0
KPG1 150904Z 21001KT 24/17 A3011 RMK A01 T02420172  RH  065%=      5-min Rain = 0
KPG1 150905Z 21002KT 24/17 A3011 RMK A01 T02430174  RH  065%=      5-min Rain = 0
KPG1 150906Z 22003KT 24/18 A3011 RMK A01 T02440175  RH  065%=      5-min Rain = 0
KPG1 150907Z 22003KT 24/18 A3011 RMK A01 T02440176  RH  066%=      5-min Rain = 0
KPG1 150908Z 23003KT 24/18 A3011 RMK A01 T02440176  RH  066%=      5-min Rain = 0
KPG1 150909Z 18001KT 24/18 A3011 RMK A01 T02440177  RH  066%=      5-min Rain = 0
KPG1 150910Z 15001KT 24/18 A3011 RMK A01 T02430178  RH  067%=      5-min Rain = 0
KPG1 150911Z 14001KT 24/18 A3011 RMK A01 T02420177  RH  067%=      5-min Rain = 0
KPG1 150912Z 17002KT 24/18 A3011 RMK A01 T02420176  RH  067%=      5-min Rain = 0
KPG1 150913Z 19003KT 24/18 A3011 RMK A01 T02420175  RH  066%=      5-min Rain = 0
KPG1 150914Z 19003KT 24/18 A3011 RMK A01 T02420176  RH  066%=      5-min Rain = 0
KPG1 150915Z 18003KT 24/18 A3011 RMK A01 T02420178  RH  067%=      5-min Rain = 0
KPG1 150916Z 20003KT 24/18 A3011 RMK A01 T02420178  RH  067%=      5-min Rain = 0
KPG1 150917Z 18003KT 24/18 A3011 RMK A01 T02410176  RH  067%=      5-min Rain = 0
KPG1 150918Z 18003KT 24/18 A301 RMK A01 T02410177  RH  068%=      5-min Rain = 0
KPG1 150919Z 16003KT 24/18 A301 RMK A01 T02410178  RH  068%=      5-min Rain = 0
KPG1 150920Z 15003KT 24/18 A301 RMK A01 T02400178  RH  068%=      5-min Rain = 0
KPG1 150921Z 16003KT 24/18 A301 RMK A01 T02400178  RH  068%=      5-min Rain = 0
KPG1 150922Z 18003KT 24/18 A301 RMK A01 T02390177  RH  068%=      5-min Rain = 0
KPG1 150923Z 19003KT 24/18 A301 RMK A01 T02390176  RH  068%=      5-min Rain = 0
KPG1 150924Z 19003KT 24/18 A301 RMK A01 T02390175  RH  067%=      5-min Rain = 0
KPG1 150925Z 21003KT 24/18 A301 RMK A01 T02390175  RH  067%=      5-min Rain = 0
KPG1 150926Z 21003KT 24/18 A301 RMK A01 T02390176  RH  068%=      5-min Rain = 0
KPG1 150927Z 22003KT 24/18 A301 RMK A01 T02390177  RH  068%=      5-min Rain = 0
KPG1 150928Z 23003KT 24/18 A301 RMK A01 T02390178  RH  069%=      5-min Rain = 0
KPG1 150929Z 22002KT 24/18 A301 RMK A01 T02380178  RH  069%=      5-min Rain = 0
KPG1 150930Z 21002KT 24/18 A301 RMK A01 T02370178  RH  069%=      5-min Rain = 0
KPG1 150931Z 21002KT 24/18 A301 RMK A01 T02370178  RH  070%=      5-min Rain = 0
KPG1 150932Z 20002KT 24/18 A301 RMK A01 T02360178  RH  070%=      5-min Rain = 0
KPG1 150933Z 20002KT 24/18 A301 RMK A01 T02360177  RH  070%=      5-min Rain = 0
KPG1 150934Z 21001KT 24/18 A301 RMK A01 T02360178  RH  070%=      5-min Rain = 0
KPG1 150935Z 22002KT 24/18 A301 RMK A01 T02350178  RH  070%=      5-min Rain = 0
KPG1 150936Z 23003KT 24/18 A301 RMK A01 T02350178  RH  070%=      5-min Rain = 0
KPG1 150937Z 23003KT 24/18 A301 RMK A01 T02350177  RH  070%=      5-min Rain = 0
KPG1 150938Z 25002KT 24/18 A301 RMK A01 T02350176  RH  069%=      5-min Rain = 0
KPG1 150939Z 26002KT 24/18 A301 RMK A01 T02360177  RH  069%=      5-min Rain = 0
KPG1 150940Z 26003KT 24/18 A301 RMK A01 T02360177  RH  069%=      5-min Rain = 0
KPG1 150941Z 26003KT 24/18 A301 RMK A01 T02370177  RH  069%=      5-min Rain = 0
KPG1 150942Z 26003KT 24/18 A301 RMK A01 T02370177  RH  069%=      5-min Rain = 0
KPG1 150943Z 26002KT 24/18 A301 RMK A01 T02370176  RH  069%=      5-min Rain = 0
KPG1 150944Z 28002KT 24/18 A301 RMK A01 T02370176  RH  069%=      5-min Rain = 0
KPG1 150945Z 30001KT 24/18 A301 RMK A01 T02370176  RH  068%=      5-min Rain = 0
KPG1 150946Z 31000KT 24/18 A301 RMK A01 T02370177  RH  069%=      5-min Rain = 0
KPG1 150947Z 07001KT 24/18 A301 RMK A01 T02380179  RH  070%=      5-min Rain = 0
KPG1 150948Z 09002KT 24/18 A301 RMK A01 T02370178  RH  070%=      5-min Rain = 0
KPG1 150949Z 08002KT 24/18 A301 RMK A01 T02370177  RH  069%=      5-min Rain = 0
KPG1 150950Z 09001KT 24/18 A301 RMK A01 T02370177  RH  069%=      5-min Rain = 0
KPG1 150951Z 10001KT 24/18 A301 RMK A01 T02370176  RH  069%=      5-min Rain = 0
KPG1 150952Z 12000KT 24/18 A301 RMK A01 T02370176  RH  069%=      5-min Rain = 0
KPG1 150953Z 00000KT 24/18 A301 RMK A01 T02370176  RH  069%=      5-min Rain = 0
KPG1 150954Z 00000KT 24/18 A301 RMK A01 T02370178  RH  069%=      5-min Rain = 0
KPG1 150955Z 00000KT 24/18 A301 RMK A01 T02370178  RH  069%=      5-min Rain = 0
KPG1 150956Z 06000KT 24/18 A301 RMK A01 T02360178  RH  070%=      5-min Rain = 0
KPG1 150957Z 07001KT 24/18 A301 RMK A01 T02370178  RH  070%=      5-min Rain = 0
KPG1 150958Z 04001KT 24/18 A301 RMK A01 T02360178  RH  070%=      5-min Rain = 0
KPG1 150959Z 04001KT 24/18 A301 RMK A01 T02360179  RH  070%=      5-min Rain = 0
KPG1 151000Z 02001KT 24/18 A301 RMK A01 T02350178  RH  070%=      5-min Rain = 0
KPG1 151001Z 02002KT 24/18 A301 RMK A01 T02350179  RH  070%=      5-min Rain = 0
KPG1 151002Z 02001KT 24/18 A301 RMK A01 T02350178  RH  070%=      5-min Rain = 0
KPG1 151003Z 00002KT 24/18 A301 RMK A01 T02350178  RH  070%=      5-min Rain = 0
KPG1 151004Z 36002KT 24/18 A301 RMK A01 T02350178  RH  070%=      5-min Rain = 0
KPG1 151005Z 00002KT 24/18 A301 RMK A01 T02350177  RH  070%=      5-min Rain = 0
KPG1 151006Z 00002KT 24/18 A301 RMK A01 T02350177  RH  070%=      5-min Rain = 0
KPG1 151007Z 01004KT 24/18 A301 RMK A01 T02360177  RH  069%=      5-min Rain = 0
KPG1 151008Z 01005KT 24/17 A301 RMK A01 T02370174  RH  068%=      5-min Rain = 0
KPG1 151009Z 01005KT 24/17 A301 RMK A01 T02380172  RH  066%=      5-min Rain = 0
KPG1 151010Z 02005KT 24/17 A301 RMK A01 T02400170  RH  065%=      5-min Rain = 0
KPG1 151011Z 02005KT 24/17 A301 RMK A01 T02430169  RH  064%=      5-min Rain = 0
KPG1 151012Z 00005KT 24/17 A301 RMK A01 T02440170  RH  063%=      5-min Rain = 0
KPG1 151013Z 01005KT 24/17 A301 RMK A01 T02440169  RH  063%=      5-min Rain = 0
KPG1 151014Z 01005KT 25/17 A301 RMK A01 T02450169  RH  063%=      5-min Rain = 0
KPG1 151015Z 02006KT 25/17 A301 RMK A01 T02450169  RH  063%=      5-min Rain = 0
KPG1 151016Z 02005KT 25/17 A301 RMK A01 T02450169  RH  063%=      5-min Rain = 0
KPG1 151017Z 03006KT 25/17 A301 RMK A01 T02450170  RH  063%=      5-min Rain = 0
KPG1 151018Z 03007KT 24/17 A301 RMK A01 T02440170  RH  063%=      5-min Rain = 0
KPG1 151019Z 02008KT 24/17 A301 RMK A01 T02440170  RH  063%=      5-min Rain = 0
KPG1 151020Z 02008KT 24/17 A3011 RMK A01 T02430170  RH  063%=      5-min Rain = 0
KPG1 151021Z 02009KT 24/17 A3011 RMK A01 T02430170  RH  064%=      5-min Rain = 0
KPG1 151022Z 02009KT 24/17 A3011 RMK A01 T02430170  RH  064%=      5-min Rain = 0
KPG1 151023Z 01008KT 24/17 A3011 RMK A01 T02430170  RH  064%=      5-min Rain = 0
KPG1 151024Z 02009KT 24/17 A3011 RMK A01 T02420170  RH  064%=      5-min Rain = 0
KPG1 151025Z 02008KT 24/17 A3011 RMK A01 T02420169  RH  064%=      5-min Rain = 0
KPG1 151026Z 02009KT 24/17 A3011 RMK A01 T02420169  RH  064%=      5-min Rain = 0
KPG1 151027Z 02009KT 24/17 A3011 RMK A01 T02420170  RH  064%=      5-min Rain = 0
KPG1 151028Z 02009KT 24/17 A3011 RMK A01 T02420170  RH  064%=      5-min Rain = 0
KPG1 151029Z 02008KT 24/17 A3011 RMK A01 T02410170  RH  064%=      5-min Rain = 0
KPG1 151030Z 02008KT 24/17 A301 RMK A01 T02400169  RH  064%=      5-min Rain = 0
KPG1 151031Z 02007KT 24/17 A301 RMK A01 T02400170  RH  065%=      5-min Rain = 0
KPG1 151032Z 02007KT 24/17 A301 RMK A01 T02400170  RH  065%=      5-min Rain = 0
KPG1 151033Z 02007KT 24/17 A301 RMK A01 T02400170  RH  065%=      5-min Rain = 0
KPG1 151034Z 02007KT 24/17 A301 RMK A01 T02400169  RH  065%=      5-min Rain = 0
KPG1 151035Z 02008KT 24/17 A301 RMK A01 T02400169  RH  065%=      5-min Rain = 0
KPG1 151036Z 02007KT 24/17 A301 RMK A01 T02410168  RH  064%=      5-min Rain = 0
KPG1 151037Z 03007KT 24/17 A301 RMK A01 T02410170  RH  064%=      5-min Rain = 0
KPG1 151038Z 03007KT 24/17 A301 RMK A01 T02400170  RH  065%=      5-min Rain = 0
KPG1 151039Z 03007KT 24/17 A301 RMK A01 T02390170  RH  065%=      5-min Rain = 0
KPG1 151040Z 03007KT 24/17 A301 RMK A01 T02390171  RH  066%=      5-min Rain = 0
KPG1 151041Z 03007KT 24/17 A301 RMK A01 T02390171  RH  066%=      5-min Rain = 0
KPG1 151042Z 03008KT 24/17 A301 RMK A01 T02380171  RH  066%=      5-min Rain = 0
KPG1 151043Z 03008KT 24/17 A301 RMK A01 T02380170  RH  065%=      5-min Rain = 0
KPG1 151044Z 03008KT 24/17 A301 RMK A01 T02390170  RH  065%=      5-min Rain = 0
KPG1 151045Z 03008KT 24/17 A301 RMK A01 T02400170  RH  065%=      5-min Rain = 0
KPG1 151046Z 02008KT 24/17 A301 RMK A01 T02400170  RH  065%=      5-min Rain = 0
KPG1 151047Z 02008KT 24/17 A301 RMK A01 T02410169  RH  064%=      5-min Rain = 0
KPG1 151048Z 02008KT 24/17 A301 RMK A01 T02420168  RH  063%=      5-min Rain = 0
KPG1 151049Z 02007KT 25/17 A301 RMK A01 T02450167  RH  062%=      5-min Rain = 0
KPG1 151050Z 01007KT 25/17 A301 RMK A01 T02470166  RH  061%=      5-min Rain = 0
KPG1 151051Z 02007KT 25/17 A301 RMK A01 T02500166  RH  059%=      5-min Rain = 0
KPG1 151052Z 01007KT 25/17 A301 RMK A01 T02510166  RH  059%=      5-min Rain = 0
KPG1 151053Z 02006KT 25/17 A301 RMK A01 T02520165  RH  058%=      5-min Rain = 0
KPG1 151054Z 02007KT 25/17 A301 RMK A01 T02530166  RH  059%=      5-min Rain = 0
KPG1 151055Z 01007KT 25/17 A301 RMK A01 T02530165  RH  058%=      5-min Rain = 0
KPG1 151056Z 01007KT 25/16 A3011 RMK A01 T02530164  RH  058%=      5-min Rain = 0
KPG1 151057Z 01007KT 25/16 A301 RMK A01 T02540164  RH  057%=      5-min Rain = 0
KPG1 151058Z 02007KT 26/16 A301 RMK A01 T02550164  RH  057%=      5-min Rain = 0
KPG1 151059Z 02006KT 26/16 A301 RMK A01 T02560164  RH  057%=      5-min Rain = 0
KPG1 151100Z 02006KT 26/16 A301 RMK A01 T02560164  RH  057%=      5-min Rain = 0
KPG1 151101Z 03005KT 26/16 A301 RMK A01 T02560164  RH  056%=      5-min Rain = 0
KPG1 151102Z 03006KT 26/17 A301 RMK A01 T02560165  RH  057%=      5-min Rain = 0
KPG1 151103Z 02006KT 25/17 A301 RMK A01 T02540166  RH  058%=      5-min Rain = 0
KPG1 151104Z 02006KT 25/17 A301 RMK A01 T02520165  RH  058%=      5-min Rain = 0
KPG1 151105Z 02007KT 25/17 A301 RMK A01 T02520165  RH  058%=      5-min Rain = 0
KPG1 151106Z 01007KT 25/16 A301 RMK A01 T02520164  RH  058%=      5-min Rain = 0
KPG1 151107Z 01006KT 25/16 A301 RMK A01 T02530164  RH  058%=      5-min Rain = 0
KPG1 151108Z 01006KT 25/16 A3011 RMK A01 T02540164  RH  057%=      5-min Rain = 0
KPG1 151109Z 01005KT 26/16 A3011 RMK A01 T02550164  RH  057%=      5-min Rain = 0
KPG1 151110Z 01005KT 26/16 A3011 RMK A01 T02560164  RH  057%=      5-min Rain = 0
KPG1 151111Z 03003KT 26/17 A3011 RMK A01 T02560165  RH  057%=      5-min Rain = 0
KPG1 151112Z 03004KT 25/17 A3011 RMK A01 T02540165  RH  058%=      5-min Rain = 0
KPG1 151113Z 03006KT 25/17 A3011 RMK A01 T02520165  RH  058%=      5-min Rain = 0
KPG1 151114Z 03006KT 25/17 A3011 RMK A01 T02510165  RH  059%=      5-min Rain = 0
KPG1 151115Z 03004KT 25/17 A3011 RMK A01 T02500165  RH  059%=      5-min Rain = 0
KPG1 151116Z 03005KT 25/17 A3011 RMK A01 T02490165  RH  059%=      5-min Rain = 0
KPG1 151117Z 03007KT 25/17 A3011 RMK A01 T02490165  RH  060%=      5-min Rain = 0
KPG1 151118Z 03006KT 25/17 A3011 RMK A01 T02480165  RH  060%=      5-min Rain = 0
KPG1 151119Z 03007KT 25/17 A3011 RMK A01 T02480165  RH  060%=      5-min Rain = 0
KPG1 151120Z 03007KT 25/17 A3011 RMK A01 T02490165  RH  060%=      5-min Rain = 0
KPG1 151121Z 03006KT 25/17 A3011 RMK A01 T02480165  RH  060%=      5-min Rain = 0
KPG1 151122Z 03006KT 25/17 A3011 RMK A01 T02470165  RH  060%=      5-min Rain = 0
KPG1 151123Z 03006KT 25/17 A3011 RMK A01 T02470165  RH  061%=      5-min Rain = 0
KPG1 151124Z 04007KT 25/17 A3011 RMK A01 T02460165  RH  061%=      5-min Rain = 0
KPG1 151125Z 04006KT 25/17 A3011 RMK A01 T02450165  RH  061%=      5-min Rain = 0
KPG1 151126Z 03008KT 25/17 A3011 RMK A01 T02450165  RH  061%=      5-min Rain = 0
KPG1 151127Z 03008KT 25/16 A3011 RMK A01 T02450164  RH  061%=      5-min Rain = 0
KPG1 151128Z 03007KT 25/17 A3011 RMK A01 T02460165  RH  061%=      5-min Rain = 0
KPG1 151129Z 02007KT 25/17 A3011 RMK A01 T02460165  RH  061%=      5-min Rain = 0
KPG1 151130Z 03007KT 25/17 A3011 RMK A01 T02450165  RH  061%=      5-min Rain = 0
KPG1 151131Z 03007KT 25/17 A3011 RMK A01 T02450166  RH  061%=      5-min Rain = 0
KPG1 151132Z 03007KT 25/17 A3011 RMK A01 T02450166  RH  061%=      5-min Rain = 0
KPG1 151133Z 03007KT 24/17 A3011 RMK A01 T02440165  RH  061%=      5-min Rain = 0
KPG1 151134Z 03007KT 24/17 A3011 RMK A01 T02440165  RH  061%=      5-min Rain = 0
KPG1 151135Z 04007KT 25/17 A3011 RMK A01 T02450165  RH  061%=      5-min Rain = 0
KPG1 151136Z 04006KT 25/17 A3011 RMK A01 T02450165  RH  061%=      5-min Rain = 0
KPG1 151137Z 04008KT 25/17 A3011 RMK A01 T02450165  RH  061%=      5-min Rain = 0
KPG1 151138Z 04008KT 25/16 A3011 RMK A01 T02450164  RH  061%=      5-min Rain = 0
KPG1 151139Z 04006KT 25/17 A3011 RMK A01 T02460165  RH  061%=      5-min Rain = 0
KPG1 151140Z 04006KT 25/17 A3011 RMK A01 T02460166  RH  061%=      5-min Rain = 0
KPG1 151141Z 04007KT 25/17 A3011 RMK A01 T02450165  RH  061%=      5-min Rain = 0
KPG1 151142Z 03006KT 25/17 A3011 RMK A01 T02450166  RH  061%=      5-min Rain = 0
KPG1 151143Z 03005KT 24/17 A3011 RMK A01 T02440166  RH  062%=      5-min Rain = 0
KPG1 151144Z 03007KT 24/17 A3011 RMK A01 T02430166  RH  062%=      5-min Rain = 0
KPG1 151145Z 03006KT 24/17 A3011 RMK A01 T02430166  RH  062%=      5-min Rain = 0
KPG1 151146Z 03006KT 24/17 A3011 RMK A01 T02420166  RH  062%=      5-min Rain = 0
KPG1 151147Z 03005KT 24/17 A3011 RMK A01 T02420167  RH  063%=      5-min Rain = 0
KPG1 151148Z 02007KT 24/17 A3011 RMK A01 T02400167  RH  063%=      5-min Rain = 0
KPG1 151149Z 01007KT 24/17 A3011 RMK A01 T02390167  RH  064%=      5-min Rain = 0
KPG1 151150Z 01007KT 24/17 A3011 RMK A01 T02390167  RH  064%=      5-min Rain = 0
KPG1 151151Z 01007KT 24/17 A3011 RMK A01 T02380167  RH  064%=      5-min Rain = 0
KPG1 151152Z 01007KT 24/17 A3011 RMK A01 T02380167  RH  064%=      5-min Rain = 0
KPG1 151153Z 01007KT 24/17 A3011 RMK A01 T02380167  RH  065%=      5-min Rain = 0
KPG1 151154Z 01007KT 24/17 A3011 RMK A01 T02380168  RH  065%=      5-min Rain = 0
KPG1 151155Z 01008KT 24/17 A3011 RMK A01 T02380168  RH  065%=      5-min Rain = 0
KPG1 151156Z 01008KT 24/17 A3011 RMK A01 T02370168  RH  065%=      5-min Rain = 0
KPG1 151157Z 01008KT 24/17 A3011 RMK A01 T02370168  RH  065%=      5-min Rain = 0
KPG1 151158Z 01008KT 24/17 A3011 RMK A01 T02370168  RH  065%=      5-min Rain = 0
KPG1 151159Z 00008KT 24/17 A3011 RMK A01 T02360168  RH  065%=      5-min Rain = 0
KPG1 151200Z 01008KT 24/17 A3012 RMK A01 T02370168  RH  065%=      5-min Rain = 0
KPG1 151201Z 00008KT 24/17 A3012 RMK A01 T02360168  RH  066%=      5-min Rain = 0
KPG1 151202Z 01008KT 24/17 A3012 RMK A01 T02360168  RH  066%=      5-min Rain = 0
KPG1 151203Z 01007KT 24/17 A3012 RMK A01 T02360168  RH  066%=      5-min Rain = 0
KPG1 151204Z 02007KT 24/17 A3012 RMK A01 T02350168  RH  066%=      5-min Rain = 0
KPG1 151205Z 02008KT 24/17 A3012 RMK A01 T02350168  RH  066%=      5-min Rain = 0
KPG1 151206Z 02007KT 24/17 A3012 RMK A01 T02350168  RH  066%=      5-min Rain = 0
KPG1 151207Z 02007KT 24/17 A3012 RMK A01 T02360168  RH  066%=      5-min Rain = 0
KPG1 151208Z 02006KT 24/17 A3012 RMK A01 T02360168  RH  066%=      5-min Rain = 0
KPG1 151209Z 02007KT 24/17 A3012 RMK A01 T02350169  RH  066%=      5-min Rain = 0
KPG1 151210Z 02007KT 24/17 A3012 RMK A01 T02350169  RH  066%=      5-min Rain = 0
KPG1 151211Z 01007KT 24/17 A3012 RMK A01 T02350169  RH  066%=      5-min Rain = 0
KPG1 151212Z 01007KT 23/17 A3012 RMK A01 T02340169  RH  067%=      5-min Rain = 0
KPG1 151213Z 02006KT 23/17 A3012 RMK A01 T02340169  RH  067%=      5-min Rain = 0
KPG1 151214Z 01007KT 23/17 A3012 RMK A01 T02340169  RH  067%=      5-min Rain = 0
KPG1 151215Z 01006KT 23/17 A3012 RMK A01 T02330169  RH  067%=      5-min Rain = 0
KPG1 151216Z 01006KT 23/17 A3012 RMK A01 T02330169  RH  067%=      5-min Rain = 0
KPG1 151217Z 01007KT 23/17 A3012 RMK A01 T02330169  RH  067%=      5-min Rain = 0
KPG1 151218Z 02007KT 23/17 A3012 RMK A01 T02330169  RH  067%=      5-min Rain = 0
KPG1 151219Z 02006KT 23/17 A3012 RMK A01 T02330168  RH  067%=      5-min Rain = 0
KPG1 151220Z 03005KT 23/17 A3012 RMK A01 T02330169  RH  067%=      5-min Rain = 0
KPG1 151221Z 03005KT 23/17 A3012 RMK A01 T02320169  RH  068%=      5-min Rain = 0
KPG1 151222Z 03007KT 23/17 A3012 RMK A01 T02310170  RH  068%=      5-min Rain = 0
KPG1 151223Z 03007KT 23/17 A3012 RMK A01 T02310170  RH  068%=      5-min Rain = 0
KPG1 151224Z 03008KT 23/17 A3012 RMK A01 T02310170  RH  069%=      5-min Rain = 0
KPG1 151225Z 03008KT 23/17 A3012 RMK A01 T02310169  RH  068%=      5-min Rain = 0
KPG1 151226Z 02008KT 23/17 A3012 RMK A01 T02310169  RH  068%=      5-min Rain = 0
KPG1 151227Z 02007KT 23/17 A3012 RMK A01 T02330167  RH  067%=      5-min Rain = 0
KPG1 151228Z 02008KT 24/17 A3012 RMK A01 T02350168  RH  066%=      5-min Rain = 0
KPG1 151229Z 01008KT 24/17 A3012 RMK A01 T02360167  RH  065%=      5-min Rain = 0
KPG1 151230Z 01008KT 24/17 A3012 RMK A01 T02390166  RH  064%=      5-min Rain = 0
KPG1 151231Z 01008KT 24/17 A3012 RMK A01 T02410165  RH  063%=      5-min Rain = 0
KPG1 151232Z 01008KT 24/17 A3012 RMK A01 T02430165  RH  062%=      5-min Rain = 0
KPG1 151233Z 01008KT 25/17 A3012 RMK A01 T02450165  RH  061%=      5-min Rain = 0
KPG1 151234Z 02009KT 25/17 A3012 RMK A01 T02470165  RH  060%=      5-min Rain = 0
KPG1 151235Z 01008KT 25/17 A3012 RMK A01 T02470165  RH  060%=      5-min Rain = 0
KPG1 151236Z 02009KT 25/17 A3012 RMK A01 T02480165  RH  060%=      5-min Rain = 0
KPG1 151237Z 02011KT 25/16 A3012 RMK A01 T02470164  RH  060%=      5-min Rain = 0
KPG1 151238Z 02009KT 25/16 A3012 RMK A01 T02480164  RH  059%=      5-min Rain = 0
KPG1 151239Z 02009KT 25/16 A3012 RMK A01 T02490163  RH  059%=      5-min Rain = 0
KPG1 151240Z 03009KT 25/16 A3012 RMK A01 T02490164  RH  059%=      5-min Rain = 0
KPG1 151241Z 02009KT 25/16 A3012 RMK A01 T02490164  RH  059%=      5-min Rain = 0
KPG1 151242Z 02008KT 25/16 A3012 RMK A01 T02490164  RH  059%=      5-min Rain = 0
KPG1 151243Z 03007KT 25/16 A3012 RMK A01 T02480164  RH  059%=      5-min Rain = 0
KPG1 151244Z 02007KT 25/16 A3012 RMK A01 T02470164  RH  060%=      5-min Rain = 0
KPG1 151245Z 01008KT 25/16 A3012 RMK A01 T02470164  RH  060%=      5-min Rain = 0
KPG1 151246Z 01009KT 25/16 A3012 RMK A01 T02470163  RH  060%=      5-min Rain = 0
KPG1 151247Z 02009KT 25/16 A3012 RMK A01 T02490163  RH  059%=      5-min Rain = 0
KPG1 151248Z 02009KT 25/16 A3013 RMK A01 T02500163  RH  058%=      5-min Rain = 0
KPG1 151249Z 01007KT 25/16 A3013 RMK A01 T02510163  RH  058%=      5-min Rain = 0
KPG1 151250Z 01008KT 25/16 A3013 RMK A01 T02520163  RH  058%=      5-min Rain = 0
KPG1 151251Z 01008KT 25/16 A3013 RMK A01 T02510163  RH  058%=      5-min Rain = 0
KPG1 151252Z 01008KT 25/16 A3013 RMK A01 T02520162  RH  058%=      5-min Rain = 0
KPG1 151253Z 01007KT 25/16 A3013 RMK A01 T02520163  RH  058%=      5-min Rain = 0
KPG1 151254Z 01006KT 25/16 A3013 RMK A01 T02520162  RH  057%=      5-min Rain = 0
KPG1 151255Z 02008KT 25/16 A3013 RMK A01 T02530163  RH  057%=      5-min Rain = 0
KPG1 151256Z 02007KT 25/16 A3013 RMK A01 T02540163  RH  057%=      5-min Rain = 0
KPG1 151257Z 01007KT 25/16 A3013 RMK A01 T02540163  RH  057%=      5-min Rain = 0
KPG1 151258Z 01007KT 26/16 A3013 RMK A01 T02550163  RH  057%=      5-min Rain = 0
KPG1 151259Z 02006KT 26/16 A3013 RMK A01 T02550163  RH  057%=      5-min Rain = 0
KPG1 151300Z 01007KT 26/16 A3013 RMK A01 T02560163  RH  056%=      5-min Rain = 0
KPG1 151301Z 01007KT 26/16 A3013 RMK A01 T02560163  RH  056%=      5-min Rain = 0
KPG1 151302Z 01007KT 26/16 A3013 RMK A01 T02570163  RH  056%=      5-min Rain = 0
KPG1 151303Z 03007KT 26/16 A3013 RMK A01 T02570163  RH  056%=      5-min Rain = 0
KPG1 151304Z 02005KT 26/16 A3013 RMK A01 T02580164  RH  056%=      5-min Rain = 0
KPG1 151305Z 02006KT 26/17 A3013 RMK A01 T02580165  RH  056%=      5-min Rain = 0
KPG1 151306Z 02007KT 26/16 A3013 RMK A01 T02570164  RH  056%=      5-min Rain = 0
KPG1 151307Z 01007KT 26/16 A3013 RMK A01 T02570163  RH  056%=      5-min Rain = 0
KPG1 151308Z 02008KT 26/16 A3013 RMK A01 T02580163  RH  056%=      5-min Rain = 0
KPG1 151309Z 03008KT 26/16 A3013 RMK A01 T02580163  RH  056%=      5-min Rain = 0
KPG1 151310Z 01008KT 26/16 A3013 RMK A01 T02590163  RH  055%=      5-min Rain = 0
KPG1 151311Z 01007KT 26/16 A3013 RMK A01 T02590162  RH  055%=      5-min Rain = 0
KPG1 151312Z 02007KT 26/16 A3013 RMK A01 T02600163  RH  055%=      5-min Rain = 0
KPG1 151313Z 02006KT 26/16 A3013 RMK A01 T02600163  RH  055%=      5-min Rain = 0
KPG1 151314Z 02006KT 26/17 A3013 RMK A01 T02600165  RH  056%=      5-min Rain = 0
KPG1 151315Z 03007KT 26/17 A3013 RMK A01 T02610165  RH  056%=      5-min Rain = 0
KPG1 151316Z 02006KT 26/17 A3013 RMK A01 T02610165  RH  055%=      5-min Rain = 0
KPG1 151317Z 04005KT 26/17 A3013 RMK A01 T02610165  RH  055%=      5-min Rain = 0
KPG1 151318Z 04004KT 26/17 A3014 RMK A01 T02610166  RH  056%=      5-min Rain = 0
KPG1 151319Z 04005KT 26/17 A3014 RMK A01 T02600166  RH  056%=      5-min Rain = 0
KPG1 151320Z 04005KT 26/17 A3014 RMK A01 T02600166  RH  056%=      5-min Rain = 0
KPG1 151321Z 04005KT 26/17 A3014 RMK A01 T02610166  RH  056%=      5-min Rain = 0
KPG1 151322Z 04005KT 26/17 A3014 RMK A01 T02600165  RH  056%=      5-min Rain = 0
KPG1 151323Z 05005KT 26/17 A3014 RMK A01 T02610166  RH  056%=      5-min Rain = 0
KPG1 151324Z 05004KT 26/17 A3014 RMK A01 T02600166  RH  056%=      5-min Rain = 0
KPG1 151325Z 05005KT 26/17 A3014 RMK A01 T02610166  RH  056%=      5-min Rain = 0
KPG1 151326Z 05005KT 26/17 A3014 RMK A01 T02610166  RH  056%=      5-min Rain = 0
KPG1 151327Z 04005KT 26/17 A3014 RMK A01 T02610167  RH  056%=      5-min Rain = 0
KPG1 151328Z 04005KT 26/17 A3014 RMK A01 T02620166  RH  055%=      5-min Rain = 0
KPG1 151329Z 04006KT 26/17 A3014 RMK A01 T02620166  RH  055%=      5-min Rain = 0
KPG1 151330Z 04007KT 26/17 A3014 RMK A01 T02620166  RH  055%=      5-min Rain = 0
KPG1 151331Z 04006KT 26/17 A3014 RMK A01 T02620166  RH  055%=      5-min Rain = 0
KPG1 151332Z 04007KT 26/17 A3014 RMK A01 T02630166  RH  055%=      5-min Rain = 0
KPG1 151333Z 04006KT 26/17 A3014 RMK A01 T02620166  RH  055%=      5-min Rain = 0
KPG1 151334Z 04007KT 26/17 A3014 RMK A01 T02630166  RH  055%=      5-min Rain = 0
KPG1 151335Z 04008KT 26/17 A3014 RMK A01 T02630166  RH  055%=      5-min Rain = 0
KPG1 151336Z 04007KT 26/17 A3014 RMK A01 T02630166  RH  055%=      5-min Rain = 0
KPG1 151337Z 04007KT 26/17 A3014 RMK A01 T02630166  RH  055%=      5-min Rain = 0
KPG1 151338Z 04006KT 26/17 A3014 RMK A01 T02630166  RH  055%=      5-min Rain = 0
KPG1 151339Z 04008KT 26/17 A3014 RMK A01 T02640167  RH  055%=      5-min Rain = 0
KPG1 151340Z 04008KT 26/17 A3014 RMK A01 T02640165  RH  055%=      5-min Rain = 0
KPG1 151341Z 05008KT 26/17 A3014 RMK A01 T02640166  RH  055%=      5-min Rain = 0
KPG1 151342Z 04009KT 26/17 A3014 RMK A01 T02640166  RH  055%=      5-min Rain = 0
KPG1 151343Z 04009KT 26/17 A3014 RMK A01 T02640165  RH  055%=      5-min Rain = 0
KPG1 151344Z 04009KT 26/17 A3014 RMK A01 T02640166  RH  055%=      5-min Rain = 0
KPG1 151345Z 04009KT 27/17 A3014 RMK A01 T02650166  RH  055%=      5-min Rain = 0
KPG1 151346Z 04009KT 27/17 A3014 RMK A01 T02650166  RH  055%=      5-min Rain = 0
KPG1 151347Z 04010KT 26/17 A3014 RMK A01 T02640166  RH  055%=      5-min Rain = 0
KPG1 151348Z 03009KT 26/17 A3014 RMK A01 T02640166  RH  055%=      5-min Rain = 0
KPG1 151349Z 03010KT 26/17 A3014 RMK A01 T02630166  RH  055%=      5-min Rain = 0
KPG1 151350Z 04010KT 26/17 A3014 RMK A01 T02620165  RH  055%=      5-min Rain = 0
KPG1 151351Z 04010KT 26/17 A3014 RMK A01 T02610166  RH  056%=      5-min Rain = 0
KPG1 151352Z 04011KT 26/17 A3014 RMK A01 T02610166  RH  056%=      5-min Rain = 0
KPG1 151353Z 04011KT 26/17 A3014 RMK A01 T02600166  RH  056%=      5-min Rain = 0
KPG1 151354Z 03011KT 26/17 A3014 RMK A01 T02600167  RH  056%=      5-min Rain = 0
KPG1 151355Z 03010KT 26/17 A3014 RMK A01 T02600167  RH  056%=      5-min Rain = 0
KPG1 151356Z 03011KT 26/17 A3014 RMK A01 T02600167  RH  056%=      5-min Rain = 0
KPG1 151357Z 04010KT 26/17 A3014 RMK A01 T02610167  RH  056%=      5-min Rain = 0
KPG1 151358Z 04010KT 26/17 A3014 RMK A01 T02600168  RH  057%=      5-min Rain = 0
KPG1 151359Z 04010KT 26/17 A3014 RMK A01 T02600168  RH  057%=      5-min Rain = 0
KPG1 151400Z 04010KT 26/17 A3014 RMK A01 T02610168  RH  057%=      5-min Rain = 0
KPG1 151401Z 04010KT 26/17 A3014 RMK A01 T02610168  RH  056%=      5-min Rain = 0
KPG1 151402Z 05010KT 26/17 A3014 RMK A01 T02620168  RH  056%=      5-min Rain = 0
KPG1 151403Z 04010KT 26/17 A3014 RMK A01 T02630168  RH  056%=      5-min Rain = 0
KPG1 151404Z 03009KT 26/17 A3014 RMK A01 T02630168  RH  056%=      5-min Rain = 0
KPG1 151405Z 04009KT 26/17 A3014 RMK A01 T02630169  RH  056%=      5-min Rain = 0
KPG1 151406Z 05010KT 26/17 A3014 RMK A01 T02630169  RH  056%=      5-min Rain = 0
KPG1 151407Z 04010KT 26/17 A3014 RMK A01 T02630169  RH  056%=      5-min Rain = 0
KPG1 151408Z 04008KT 26/17 A3014 RMK A01 T02630169  RH  056%=      5-min Rain = 0
KPG1 151409Z 03009KT 27/17 A3014 RMK A01 T02650170  RH  056%=      5-min Rain = 0
KPG1 151410Z 03010KT 27/17 A3014 RMK A01 T02660169  RH  055%=      5-min Rain = 0
KPG1 151411Z 04010KT 27/17 A3014 RMK A01 T02650169  RH  056%=      5-min Rain = 0
KPG1 151412Z 05010KT 26/17 A3014 RMK A01 T02640169  RH  056%=      5-min Rain = 0
KPG1 151413Z 05011KT 26/17 A3014 RMK A01 T02640169  RH  056%=      5-min Rain = 0
KPG1 151414Z 05009KT 26/17 A3014 RMK A01 T02640168  RH  056%=      5-min Rain = 0
KPG1 151415Z 04009KT 26/17 A3014 RMK A01 T02640168  RH  056%=      5-min Rain = 0
KPG1 151416Z 04008KT 26/17 A3014 RMK A01 T02640168  RH  056%=      5-min Rain = 0
KPG1 151417Z 03009KT 27/17 A3014 RMK A01 T02660170  RH  055%=      5-min Rain = 0
KPG1 151418Z 04008KT 27/17 A3014 RMK A01 T02670169  RH  055%=      5-min Rain = 0
KPG1 151419Z 03007KT 27/17 A3014 RMK A01 T02670169  RH  055%=      5-min Rain = 0
KPG1 151420Z 03008KT 27/17 A3014 RMK A01 T02690170  RH  055%=      5-min Rain = 0
KPG1 151421Z 03010KT 27/17 A3014 RMK A01 T02700170  RH  054%=      5-min Rain = 0
KPG1 151422Z 03010KT 27/17 A3014 RMK A01 T02690169  RH  054%=      5-min Rain = 0
KPG1 151423Z 04009KT 27/17 A3014 RMK A01 T02690169  RH  054%=      5-min Rain = 0
KPG1 151424Z 04009KT 27/17 A3014 RMK A01 T02680169  RH  054%=      5-min Rain = 0
KPG1 151425Z 04008KT 27/17 A3014 RMK A01 T02660169  RH  055%=      5-min Rain = 0
KPG1 151426Z 03008KT 27/17 A3014 RMK A01 T02680170  RH  055%=      5-min Rain = 0
KPG1 151427Z 04009KT 27/17 A3014 RMK A01 T02700170  RH  054%=      5-min Rain = 0
KPG1 151428Z 03009KT 27/17 A3014 RMK A01 T02710169  RH  054%=      5-min Rain = 0
KPG1 151429Z 02009KT 27/17 A3014 RMK A01 T02710169  RH  054%=      5-min Rain = 0
KPG1 151430Z 02010KT 27/17 A3014 RMK A01 T02700168  RH  054%=      5-min Rain = 0
KPG1 151431Z 02011KT 27/17 A3014 RMK A01 T02700168  RH  053%=      5-min Rain = 0
KPG1 151432Z 02009KT 27/17 A3014 RMK A01 T02690167  RH  054%=      5-min Rain = 0
KPG1 151433Z 03007KT 27/17 A3014 RMK A01 T02690170  RH  054%=      5-min Rain = 0
KPG1 151434Z 04009KT 27/17 A3014 RMK A01 T02720171  RH  054%=      5-min Rain = 0
KPG1 151435Z 04008KT 27/17 A3014 RMK A01 T02740170  RH  053%=      5-min Rain = 0
KPG1 151436Z 04008KT 28/17 A3014 RMK A01 T02750169  RH  052%=      5-min Rain = 0
KPG1 151437Z 05010KT 27/17 A3014 RMK A01 T02740169  RH  053%=      5-min Rain = 0
KPG1 151438Z 05009KT 27/17 A3014 RMK A01 T02740169  RH  053%=      5-min Rain = 0
KPG1 151439Z 05009KT 27/17 A3014 RMK A01 T02740169  RH  053%=      5-min Rain = 0
KPG1 151440Z 05008KT 27/17 A3014 RMK A01 T02740169  RH  053%=      5-min Rain = 0
KPG1 151441Z 04007KT 27/17 A3014 RMK A01 T02730169  RH  053%=      5-min Rain = 0
KPG1 151442Z 04008KT 27/17 A3014 RMK A01 T02740170  RH  053%=      5-min Rain = 0
KPG1 151443Z 05009KT 28/17 A3014 RMK A01 T02750170  RH  053%=      5-min Rain = 0
KPG1 151444Z 03008KT 28/17 A3014 RMK A01 T02750170  RH  053%=      5-min Rain = 0
KPG1 151445Z 03008KT 28/17 A3014 RMK A01 T02750168  RH  052%=      5-min Rain = 0
KPG1 151446Z 03008KT 28/17 A3014 RMK A01 T02750168  RH  052%=      5-min Rain = 0
KPG1 151447Z 03007KT 28/17 A3015 RMK A01 T02750168  RH  052%=      5-min Rain = 0
KPG1 151448Z 03008KT 28/17 A3015 RMK A01 T02780168  RH  051%=      5-min Rain = 0
KPG1 151449Z 03010KT 28/17 A3015 RMK A01 T02780168  RH  051%=      5-min Rain = 0
KPG1 151450Z 02010KT 28/17 A3015 RMK A01 T02770168  RH  051%=      5-min Rain = 0
KPG1 151451Z 03010KT 28/17 A3015 RMK A01 T02770168  RH  051%=      5-min Rain = 0
KPG1 151452Z 03008KT 28/17 A3015 RMK A01 T02760167  RH  052%=      5-min Rain = 0
KPG1 151453Z 03009KT 28/17 A3015 RMK A01 T02760167  RH  052%=      5-min Rain = 0
KPG1 151454Z 04009KT 28/17 A3015 RMK A01 T02760166  RH  051%=      5-min Rain = 0
KPG1 151455Z 03006KT 28/17 A3015 RMK A01 T02750166  RH  051%=      5-min Rain = 0
KPG1 151456Z 05008KT 28/17 A3015 RMK A01 T02770168  RH  051%=      5-min Rain = 0
KPG1 151457Z 05008KT 28/17 A3015 RMK A01 T02780167  RH  051%=      5-min Rain = 0
KPG1 151458Z 04007KT 28/17 A3015 RMK A01 T02780167  RH  051%=      5-min Rain = 0
KPG1 151459Z 05007KT 28/17 A3015 RMK A01 T02780167  RH  051%=      5-min Rain = 0
KPG1 151500Z 05007KT 28/17 A3015 RMK A01 T02790167  RH  051%=      5-min Rain = 0
KPG1 151501Z 05006KT 28/17 A3015 RMK A01 T02790166  RH  050%=      5-min Rain = 0
KPG1 151502Z 04007KT 28/17 A3015 RMK A01 T02780167  RH  051%=      5-min Rain = 0
KPG1 151503Z 04007KT 28/17 A3015 RMK A01 T02780167  RH  051%=      5-min Rain = 0
KPG1 151504Z 04007KT 28/17 A3015 RMK A01 T02800167  RH  050%=      5-min Rain = 0
KPG1 151505Z 04009KT 28/17 A3015 RMK A01 T02800166  RH  050%=      5-min Rain = 0
KPG1 151506Z 04009KT 28/17 A3015 RMK A01 T02800166  RH  050%=      5-min Rain = 0
KPG1 151507Z 03007KT 28/17 A3015 RMK A01 T02790165  RH  050%=      5-min Rain = 0
KPG1 151508Z 04008KT 28/17 A3015 RMK A01 T02790167  RH  051%=      5-min Rain = 0
KPG1 151509Z 03008KT 28/17 A3015 RMK A01 T02820166  RH  050%=      5-min Rain = 0
KPG1 151510Z 04008KT 28/17 A3015 RMK A01 T02810165  RH  049%=      5-min Rain = 0
KPG1 151511Z 03007KT 28/17 A3015 RMK A01 T02800165  RH  050%=      5-min Rain = 0
KPG1 151512Z 04006KT 28/17 A3015 RMK A01 T02800166  RH  050%=      5-min Rain = 0
KPG1 151513Z 02006KT 28/17 A3015 RMK A01 T02820166  RH  049%=      5-min Rain = 0
KPG1 151514Z 04007KT 28/17 A3015 RMK A01 T02840167  RH  049%=      5-min Rain = 0
KPG1 151515Z 05007KT 29/17 A3015 RMK A01 T02850166  RH  048%=      5-min Rain = 0
KPG1 151516Z 05006KT 28/17 A3015 RMK A01 T02840166  RH  049%=      5-min Rain = 0
KPG1 151517Z 04007KT 28/17 A3015 RMK A01 T02840167  RH  049%=      5-min Rain = 0
KPG1 151518Z 06006KT 28/17 A3015 RMK A01 T02840167  RH  049%=      5-min Rain = 0
KPG1 151519Z 08006KT 28/17 A3015 RMK A01 T02840166  RH  049%=      5-min Rain = 0
KPG1 151520Z 07009KT 28/17 A3015 RMK A01 T02830166  RH  049%=      5-min Rain = 0
KPG1 151521Z 07010KT 28/17 A3015 RMK A01 T02830166  RH  049%=      5-min Rain = 0
KPG1 151522Z 07008KT 28/17 A3015 RMK A01 T02830166  RH  049%=      5-min Rain = 0
KPG1 151523Z 06007KT 28/17 A3015 RMK A01 T02830167  RH  049%=      5-min Rain = 0
KPG1 151524Z 06006KT 29/17 A3015 RMK A01 T02850166  RH  048%=      5-min Rain = 0
KPG1 151525Z 05005KT 29/17 A3015 RMK A01 T02850167  RH  049%=      5-min Rain = 0
KPG1 151526Z 04007KT 29/17 A3015 RMK A01 T02860168  RH  049%=      5-min Rain = 0
KPG1 151527Z 04007KT 29/17 A3015 RMK A01 T02860168  RH  049%=      5-min Rain = 0
KPG1 151528Z 03008KT 29/17 A3015 RMK A01 T02870167  RH  048%=      5-min Rain = 0
KPG1 151529Z 03007KT 29/17 A3015 RMK A01 T02870168  RH  048%=      5-min Rain = 0
KPG1 151530Z 04008KT 29/17 A3015 RMK A01 T02870167  RH  048%=      5-min Rain = 0
KPG1 151531Z 03007KT 29/17 A3015 RMK A01 T02870167  RH  048%=      5-min Rain = 0
KPG1 151532Z 04007KT 29/17 A3015 RMK A01 T02880167  RH  048%=      5-min Rain = 0
KPG1 151533Z 04008KT 29/17 A3015 RMK A01 T02880167  RH  048%=      5-min Rain = 0
KPG1 151534Z 04008KT 29/17 A3015 RMK A01 T02880167  RH  048%=      5-min Rain = 0
KPG1 151535Z 03008KT 29/17 A3015 RMK A01 T02880167  RH  048%=      5-min Rain = 0
KPG1 151536Z 04006KT 29/17 A3015 RMK A01 T02880167  RH  048%=      5-min Rain = 0
KPG1 151537Z 04006KT 29/17 A3015 RMK A01 T02890167  RH  047%=      5-min Rain = 0
KPG1 151538Z 04004KT 29/17 A3015 RMK A01 T02890166  RH  047%=      5-min Rain = 0
KPG1 151539Z 05004KT 29/17 A3015 RMK A01 T02900167  RH  047%=      5-min Rain = 0
KPG1 151540Z 06003KT 29/17 A3015 RMK A01 T02920167  RH  047%=      5-min Rain = 0
KPG1 151541Z 04006KT 29/17 A3015 RMK A01 T02930169  RH  047%=      5-min Rain = 0
KPG1 151542Z 07004KT 29/17 A3015 RMK A01 T02940168  RH  047%=      5-min Rain = 0
KPG1 151543Z 09003KT 29/17 A3015 RMK A01 T02940168  RH  047%=      5-min Rain = 0
KPG1 151544Z 05005KT 29/17 A3015 RMK A01 T02940169  RH  047%=      5-min Rain = 0
KPG1 151545Z 04007KT 30/17 A3015 RMK A01 T02950168  RH  046%=      5-min Rain = 0
KPG1 151546Z 03007KT 30/17 A3015 RMK A01 T02950167  RH  046%=      5-min Rain = 0
KPG1 151547Z 07006KT 29/17 A3015 RMK A01 T02930167  RH  046%=      5-min Rain = 0
KPG1 151548Z 06006KT 29/17 A3015 RMK A01 T02920166  RH  047%=      5-min Rain = 0
KPG1 151549Z 06003KT 29/17 A3015 RMK A01 T02900165  RH  047%=      5-min Rain = 0
KPG1 151550Z 08002KT 29/17 A3015 RMK A01 T02890166  RH  047%=      5-min Rain = 0
KPG1 151551Z 04006KT 29/17 A3015 RMK A01 T02920167  RH  047%=      5-min Rain = 0
KPG1 151552Z 04005KT 29/17 A3015 RMK A01 T02930167  RH  047%=      5-min Rain = 0
KPG1 151553Z 04006KT 29/17 A3015 RMK A01 T02940168  RH  047%=      5-min Rain = 0
KPG1 151554Z 05007KT 29/17 A3015 RMK A01 T02940168  RH  046%=      5-min Rain = 0
KPG1 151555Z 06006KT 29/17 A3015 RMK A01 T02940167  RH  046%=      5-min Rain = 0
KPG1 151556Z 05004KT 30/17 A3015 RMK A01 T02950168  RH  046%=      5-min Rain = 0
KPG1 151557Z 03008KT 30/17 A3015 RMK A01 T02950167  RH  046%=      5-min Rain = 0
KPG1 151558Z 02006KT 30/17 A3015 RMK A01 T02950167  RH  046%=      5-min Rain = 0
KPG1 151559Z 03005KT 30/17 A3015 RMK A01 T02960168  RH  046%=      5-min Rain = 0
KPG1 151600Z 04004KT 30/17 A3015 RMK A01 T02980167  RH  045%=      5-min Rain = 0
KPG1 151601Z 04004KT 30/17 A3015 RMK A01 T03010167  RH  045%=      5-min Rain = 0
KPG1 151602Z 05007KT 30/17 A3015 RMK A01 T03000168  RH  045%=      5-min Rain = 0
KPG1 151603Z 05007KT 30/17 A3015 RMK A01 T03000168  RH  045%=      5-min Rain = 0
KPG1 151604Z 06006KT 30/17 A3015 RMK A01 T03000167  RH  045%=      5-min Rain = 0
KPG1 151605Z 05005KT 30/17 A3015 RMK A01 T03000167  RH  045%=      5-min Rain = 0
KPG1 151606Z 06004KT 30/17 A3015 RMK A01 T03010167  RH  044%=      5-min Rain = 0
KPG1 151607Z 07004KT 30/17 A3015 RMK A01 T03040168  RH  044%=      5-min Rain = 0
KPG1 151608Z 06004KT 31/17 A3015 RMK A01 T03050167  RH  043%=      5-min Rain = 0
KPG1 151609Z 05005KT 31/17 A3015 RMK A01 T03070167  RH  043%=      5-min Rain = 0
KPG1 151610Z 03007KT 31/17 A3015 RMK A01 T03070167  RH  043%=      5-min Rain = 0
KPG1 151611Z 02005KT 30/16 A3015 RMK A01 T03020164  RH  044%=      5-min Rain = 0
KPG1 151612Z 06005KT 30/17 A3015 RMK A01 T02990165  RH  044%=      5-min Rain = 0
KPG1 151613Z 06005KT 30/17 A3015 RMK A01 T03020166  RH  044%=      5-min Rain = 0
KPG1 151614Z 07004KT 30/17 A3015 RMK A01 T03030165  RH  044%=      5-min Rain = 0
KPG1 151615Z 05006KT 30/17 A3015 RMK A01 T03030167  RH  044%=      5-min Rain = 0
KPG1 151616Z 04006KT 30/17 A3015 RMK A01 T03040166  RH  044%=      5-min Rain = 0
KPG1 151617Z 07005KT 30/17 A3015 RMK A01 T03040167  RH  044%=      5-min Rain = 0
KPG1 151618Z 06005KT 30/17 A3015 RMK A01 T03040166  RH  043%=      5-min Rain = 0
KPG1 151619Z 10003KT 31/16 A3015 RMK A01 T03050164  RH  043%=      5-min Rain = 0
KPG1 151620Z 06002KT 30/17 A3015 RMK A01 T03040165  RH  043%=      5-min Rain = 0
KPG1 151621Z 01005KT 31/17 A3015 RMK A01 T03080168  RH  043%=      5-min Rain = 0
KPG1 151622Z 01006KT 31/17 A3015 RMK A01 T03100169  RH  043%=      5-min Rain = 0
KPG1 151623Z 01007KT 31/17 A3015 RMK A01 T03090168  RH  043%=      5-min Rain = 0
KPG1 151624Z 01008KT 31/17 A3015 RMK A01 T03060168  RH  043%=      5-min Rain = 0
KPG1 151625Z 01008KT 31/17 A3015 RMK A01 T03050167  RH  043%=      5-min Rain = 0
KPG1 151626Z 04006KT 31/17 A3015 RMK A01 T03050167  RH  043%=      5-min Rain = 0
KPG1 151627Z 06005KT 31/17 A3015 RMK A01 T03060168  RH  043%=      5-min Rain = 0
KPG1 151628Z 04004KT 31/17 A3015 RMK A01 T03100170  RH  043%=      5-min Rain = 0
KPG1 151629Z 05004KT 31/17 A3015 RMK A01 T03130170  RH  042%=      5-min Rain = 0
KPG1 151630Z 02008KT 32/17 A3015 RMK A01 T03150170  RH  042%=      5-min Rain = 0
KPG1 151631Z 01005KT 31/17 A3015 RMK A01 T03130167  RH  042%=      5-min Rain = 0
KPG1 151632Z 00004KT 31/17 A3015 RMK A01 T03090167  RH  042%=      5-min Rain = 0
KPG1 151633Z 02006KT 31/17 A3015 RMK A01 T03110169  RH  043%=      5-min Rain = 0
KPG1 151634Z 00006KT 31/17 A3015 RMK A01 T03120168  RH  042%=      5-min Rain = 0
KPG1 151635Z 36004KT 31/17 A3015 RMK A01 T03130167  RH  042%=      5-min Rain = 0
KPG1 151636Z 02004KT 31/17 A3015 RMK A01 T03110167  RH  042%=      5-min Rain = 0
KPG1 151637Z 03007KT 31/17 A3015 RMK A01 T03090165  RH  042%=      5-min Rain = 0
KPG1 151638Z 03006KT 31/17 A3015 RMK A01 T03090166  RH  042%=      5-min Rain = 0
KPG1 151639Z 00007KT 31/17 A3015 RMK A01 T03090165  RH  042%=      5-min Rain = 0
KPG1 151640Z 35007KT 31/17 A3015 RMK A01 T03070165  RH  043%=      5-min Rain = 0
KPG1 151641Z 01006KT 31/17 A3015 RMK A01 T03060165  RH  043%=      5-min Rain = 0
KPG1 151642Z 34003KT 31/16 A3015 RMK A01 T03060164  RH  042%=      5-min Rain = 0
KPG1 151643Z 31004KT 31/16 A3015 RMK A01 T03070164  RH  042%=      5-min Rain = 0
KPG1 151644Z 30005KT 31/16 A3015 RMK A01 T03080164  RH  042%=      5-min Rain = 0
KPG1 151645Z 31005KT 31/16 A3015 RMK A01 T03080164  RH  042%=      5-min Rain = 0
KPG1 151646Z 30003KT 31/16 A3015 RMK A01 T03080163  RH  042%=      5-min Rain = 0
KPG1 151647Z 34002KT 31/16 A3015 RMK A01 T03080162  RH  041%=      5-min Rain = 0
KPG1 151648Z 02002KT 31/17 A3015 RMK A01 T03110166  RH  042%=      5-min Rain = 0
KPG1 151649Z 02004KT 32/17 A3015 RMK A01 T03160167  RH  041%=      5-min Rain = 0
KPG1 151650Z 07005KT 32/17 A3015 RMK A01 T03170166  RH  040%=      5-min Rain = 0
KPG1 151651Z 05005KT 32/17 A3015 RMK A01 T03170165  RH  040%=      5-min Rain = 0
KPG1 151652Z 08002KT 31/16 A3015 RMK A01 T03130164  RH  041%=      5-min Rain = 0
KPG1 151653Z 11002KT 31/16 A3015 RMK A01 T03120164  RH  041%=      5-min Rain = 0
KPG1 151654Z 10004KT 31/16 A3015 RMK A01 T03130164  RH  041%=      5-min Rain = 0
KPG1 151655Z 14003KT 31/16 A3015 RMK A01 T03120164  RH  041%=      5-min Rain = 0
KPG1 151656Z 09004KT 32/16 A3015 RMK A01 T03150164  RH  040%=      5-min Rain = 0
KPG1 151657Z 07002KT 32/16 A3015 RMK A01 T03160163  RH  040%=      5-min Rain = 0
KPG1 151658Z 18001KT 32/16 A3015 RMK A01 T03160162  RH  040%=      5-min Rain = 0
KPG1 151659Z 15000KT 32/16 A3015 RMK A01 T03150161  RH  040%=      5-min Rain = 0
KPG1 151700Z 07005KT 31/16 A3015 RMK A01 T03140163  RH  040%=      5-min Rain = 0
KPG1 151701Z 07003KT 31/16 A3015 RMK A01 T03140161  RH  040%=      5-min Rain = 0
KPG1 151702Z 08006KT 31/16 A3015 RMK A01 T03140163  RH  040%=      5-min Rain = 0
KPG1 151703Z 05005KT 32/16 A3015 RMK A01 T03150162  RH  040%=      5-min Rain = 0
KPG1 151704Z 05002KT 32/16 A3015 RMK A01 T03150161  RH  040%=      5-min Rain = 0
KPG1 151705Z 01003KT 31/16 A3015 RMK A01 T03140162  RH  040%=      5-min Rain = 0
KPG1 151706Z 01004KT 31/16 A3015 RMK A01 T03140163  RH  040%=      5-min Rain = 0
KPG1 151707Z 33002KT 31/16 A3015 RMK A01 T03140163  RH  040%=      5-min Rain = 0
KPG1 151708Z 33002KT 31/16 A3015 RMK A01 T03140163  RH  040%=      5-min Rain = 0
KPG1 151709Z 08001KT 31/16 A3015 RMK A01 T03130163  RH  040%=      5-min Rain = 0
KPG1 151710Z 09003KT 32/17 A3015 RMK A01 T03150165  RH  041%=      5-min Rain = 0
KPG1 151711Z 10005KT 32/17 A3015 RMK A01 T03170166  RH  040%=      5-min Rain = 0
KPG1 151712Z 10005KT 32/16 A3015 RMK A01 T03160164  RH  040%=      5-min Rain = 0
KPG1 151713Z 10002KT 32/16 A3014 RMK A01 T03150164  RH  040%=      5-min Rain = 0
KPG1 151714Z 16001KT 31/16 A3014 RMK A01 T03140162  RH  040%=      5-min Rain = 0
KPG1 151715Z 26001KT 31/16 A3014 RMK A01 T03140161  RH  040%=      5-min Rain = 0
KPG1 151716Z 15003KT 32/16 A3014 RMK A01 T03150163  RH  040%=      5-min Rain = 0
KPG1 151717Z 13005KT 32/16 A3014 RMK A01 T03180162  RH  039%=      5-min Rain = 0
KPG1 151718Z 13003KT 32/16 A3014 RMK A01 T03170160  RH  039%=      5-min Rain = 0
KPG1 151719Z 16002KT 32/16 A3014 RMK A01 T03160161  RH  039%=      5-min Rain = 0
KPG1 151720Z 17003KT 32/16 A3014 RMK A01 T03160160  RH  039%=      5-min Rain = 0
KPG1 151721Z 20004KT 32/16 A3014 RMK A01 T03170161  RH  039%=      5-min Rain = 0
KPG1 151722Z 20003KT 32/16 A3014 RMK A01 T03190159  RH  038%=      5-min Rain = 0
KPG1 151723Z 23002KT 32/16 A3014 RMK A01 T03180159  RH  038%=      5-min Rain = 0
KPG1 151724Z 24003KT 32/16 A3014 RMK A01 T03170159  RH  039%=      5-min Rain = 0
KPG1 151725Z 26003KT 32/16 A3014 RMK A01 T03190159  RH  038%=      5-min Rain = 0
KPG1 151726Z 28001KT 32/16 A3014 RMK A01 T03190159  RH  038%=      5-min Rain = 0
KPG1 151727Z 17002KT 32/16 A3014 RMK A01 T03210160  RH  038%=      5-min Rain = 0
KPG1 151728Z 23001KT 32/16 A3014 RMK A01 T03230160  RH  038%=      5-min Rain = 0
KPG1 151729Z 33002KT 33/16 A3014 RMK A01 T03250161  RH  037%=      5-min Rain = 0
KPG1 151730Z 02002KT 33/17 A3014 RMK A01 T03270165  RH  038%=      5-min Rain = 0
KPG1 151731Z 03007KT 33/16 A3013 RMK A01 T03290164  RH  037%=      5-min Rain = 0
KPG1 151732Z 02006KT 33/16 A3013 RMK A01 T03280163  RH  037%=      5-min Rain = 0
KPG1 151733Z 04003KT 33/16 A3013 RMK A01 T03290164  RH  037%=      5-min Rain = 0
KPG1 151734Z 05005KT 33/17 A3013 RMK A01 T03320165  RH  037%=      5-min Rain = 0
KPG1 151735Z 04005KT 33/16 A3013 RMK A01 T03330163  RH  036%=      5-min Rain = 0
KPG1 151736Z 01006KT 33/16 A3013 RMK A01 T03340164  RH  036%=      5-min Rain = 0
KPG1 151737Z 36007KT 33/16 A3013 RMK A01 T03310162  RH  036%=      5-min Rain = 0
KPG1 151738Z 04005KT 33/16 A3013 RMK A01 T03270163  RH  038%=      5-min Rain = 0
KPG1 151739Z 01005KT 33/16 A3013 RMK A01 T03300164  RH  037%=      5-min Rain = 0
KPG1 151740Z 01006KT 33/16 A3013 RMK A01 T03310164  RH  037%=      5-min Rain = 0
KPG1 151741Z 02007KT 33/16 A3013 RMK A01 T03340163  RH  036%=      5-min Rain = 0
KPG1 151742Z 02006KT 33/16 A3013 RMK A01 T03320162  RH  036%=      5-min Rain = 0
KPG1 151743Z 01005KT 33/16 A3013 RMK A01 T03280162  RH  037%=      5-min Rain = 0
KPG1 151744Z 02007KT 33/16 A3013 RMK A01 T03270164  RH  037%=      5-min Rain = 0
KPG1 151745Z 03005KT 33/16 A3013 RMK A01 T03270163  RH  037%=      5-min Rain = 0
KPG1 151746Z 35004KT 33/17 A3012 RMK A01 T03280165  RH  038%=      5-min Rain = 0
KPG1 151747Z 32005KT 33/17 A3012 RMK A01 T03300165  RH  037%=      5-min Rain = 0
KPG1 151748Z 33004KT 33/16 A3012 RMK A01 T03270163  RH  037%=      5-min Rain = 0
KPG1 151749Z 31003KT 32/16 A3012 RMK A01 T03240162  RH  038%=      5-min Rain = 0
KPG1 151750Z 33005KT 33/16 A3012 RMK A01 T03250163  RH  038%=      5-min Rain = 0
KPG1 151751Z 36005KT 33/16 A3012 RMK A01 T03250160  RH  037%=      5-min Rain = 0
KPG1 151752Z 36005KT 33/16 A3012 RMK A01 T03270157  RH  036%=      5-min Rain = 0
KPG1 151753Z 35005KT 33/16 A3012 RMK A01 T03270155  RH  036%=      5-min Rain = 0
KPG1 151754Z 36005KT 33/16 A3012 RMK A01 T03260155  RH  036%=      5-min Rain = 0
KPG1 151755Z 36006KT 33/16 A3012 RMK A01 T03260157  RH  036%=      5-min Rain = 0
KPG1 151756Z 01003KT 32/16 A3012 RMK A01 T03240159  RH  037%=      5-min Rain = 0
KPG1 151757Z 02002KT 33/16 A3012 RMK A01 T03250159  RH  037%=      5-min Rain = 0
KPG1 151758Z 33004KT 33/16 A3012 RMK A01 T03290159  RH  036%=      5-min Rain = 0
KPG1 151759Z 33004KT 33/16 A3012 RMK A01 T03290158  RH  036%=      5-min Rain = 0
KPG1 151800Z 28002KT 33/16 A3012 RMK A01 T03290156  RH  035%=      5-min Rain = 0
KPG1 151801Z 03002G7KT 33/16 A3012 RMK A01 T03310158  RH  035%=      5-min Rain = 0
KPG1 151802Z 02006KT 33/16 A3012 RMK A01 T03340159  RH  035%=      5-min Rain = 0
KPG1 151803Z 02006KT 33/16 A3011 RMK A01 T03340159  RH  035%=      5-min Rain = 0
KPG1 151804Z 03006KT 34/16 A3011 RMK A01 T03350161  RH  035%=      5-min Rain = 0
KPG1 151805Z 02005KT 33/16 A3011 RMK A01 T03310159  RH  036%=      5-min Rain = 0
KPG1 151806Z 06004KT 33/16 A3011 RMK A01 T03300159  RH  036%=      5-min Rain = 0
KPG1 151807Z 06005KT 33/16 A3011 RMK A01 T03320158  RH  035%=      5-min Rain = 0
KPG1 151808Z 34004KT 34/16 A3011 RMK A01 T03360160  RH  035%=      5-min Rain = 0
KPG1 151809Z 00003KT 34/16 A3011 RMK A01 T03370157  RH  034%=      5-min Rain = 0
KPG1 151810Z 00003KT 34/16 A3011 RMK A01 T03350157  RH  034%=      5-min Rain = 0
KPG1 151811Z 34003KT 33/15 A3011 RMK A01 T03330154  RH  034%=      5-min Rain = 0
KPG1 151812Z 30003KT 33/15 A3011 RMK A01 T03320154  RH  034%=      5-min Rain = 0
KPG1 151813Z 27004KT 33/16 A3011 RMK A01 T03310155  RH  035%=      5-min Rain = 0
KPG1 151814Z 26005KT 33/16 A3011 RMK A01 T03300157  RH  035%=      5-min Rain = 0
KPG1 151815Z 26003KT 33/16 A3011 RMK A01 T03290158  RH  036%=      5-min Rain = 0
KPG1 151816Z 12002KT 33/16 A3011 RMK A01 T03340159  RH  035%=      5-min Rain = 0
KPG1 151817Z 10002KT 34/16 A3011 RMK A01 T03390157  RH  034%=      5-min Rain = 0
KPG1 151818Z 12003KT 34/16 A3011 RMK A01 T03410158  RH  034%=      5-min Rain = 0
KPG1 151819Z 06003KT 35/16 A3011 RMK A01 T03460158  RH  033%=      5-min Rain = 0
KPG1 151820Z 07005KT 35/16 A3011 RMK A01 T03450156  RH  032%=      5-min Rain = 0
KPG1 151821Z 10005KT 35/16 A3011 RMK A01 T03460157  RH  032%=      5-min Rain = 0
KPG1 151822Z 11007KT 35/16 A3011 RMK A01 T03470155  RH  032%=      5-min Rain = 0
KPG1 151823Z 12003KT 34/15 A3011 RMK A01 T03420154  RH  032%=      5-min Rain = 0
KPG1 151824Z 11005KT 34/16 A3011 RMK A01 T03420155  RH  033%=      5-min Rain = 0
KPG1 151825Z 09005KT 34/16 A3011 RMK A01 T03430156  RH  033%=      5-min Rain = 0
KPG1 151826Z 10006KT 34/16 A3011 RMK A01 T03440155  RH  032%=      5-min Rain = 0
KPG1 151827Z 10006KT 34/15 A3011 RMK A01 T03420154  RH  032%=      5-min Rain = 0
KPG1 151828Z 12006KT 34/15 A3011 RMK A01 T03400154  RH  033%=      5-min Rain = 0
KPG1 151829Z 14005KT 34/15 A3011 RMK A01 T03380154  RH  033%=      5-min Rain = 0
KPG1 151830Z 16005KT 34/15 A3011 RMK A01 T03360153  RH  033%=      5-min Rain = 0
KPG1 151831Z 19005KT 34/15 A3011 RMK A01 T03360153  RH  033%=      5-min Rain = 0
KPG1 151832Z 22004KT 34/15 A3011 RMK A01 T03360154  RH  034%=      5-min Rain = 0
KPG1 151833Z 21005KT 34/16 A301 RMK A01 T03360155  RH  034%=      5-min Rain = 0
KPG1 151834Z 20004KT 34/15 A301 RMK A01 T03380152  RH  033%=      5-min Rain = 0
KPG1 151835Z 19004KT 34/15 A301 RMK A01 T03410150  RH  032%=      5-min Rain = 0
KPG1 151836Z 22002KT 34/15 A301 RMK A01 T03440148  RH  031%=      5-min Rain = 0
KPG1 151837Z 17004KT 35/15 A301 RMK A01 T03460150  RH  031%=      5-min Rain = 0
KPG1 151838Z 16003KT 35/15 A301 RMK A01 T03450150  RH  031%=      5-min Rain = 0
KPG1 151839Z 12002KT 34/15 A301 RMK A01 T03440149  RH  031%=      5-min Rain = 0
KPG1 151840Z 03003KT 34/15 A301 RMK A01 T03430149  RH  031%=      5-min Rain = 0
KPG1 151841Z 00002KT 34/15 A301 RMK A01 T03430149  RH  031%=      5-min Rain = 0
KPG1 151842Z 10003KT 34/15 A301 RMK A01 T03420150  RH  032%=      5-min Rain = 0
KPG1 151843Z 07004KT 34/15 A301 RMK A01 T03430148  RH  031%=      5-min Rain = 0
KPG1 151844Z 05004KT 34/15 A301 RMK A01 T03440149  RH  031%=      5-min Rain = 0
KPG1 151845Z 01003KT 34/15 A301 RMK A01 T03440148  RH  031%=      5-min Rain = 0
KPG1 151846Z 01003KT 34/15 A301 RMK A01 T03420149  RH  031%=      5-min Rain = 0
KPG1 151847Z 01005KT 34/15 A301 RMK A01 T03440147  RH  031%=      5-min Rain = 0
KPG1 151848Z 00005KT 34/15 A301 RMK A01 T03430148  RH  031%=      5-min Rain = 0
KPG1 151849Z 01004KT 34/15 A301 RMK A01 T03410148  RH  031%=      5-min Rain = 0
KPG1 151850Z 01003KT 34/15 A301 RMK A01 T03400147  RH  031%=      5-min Rain = 0
KPG1 151851Z 02004KT 34/15 A301 RMK A01 T03400146  RH  031%=      5-min Rain = 0
KPG1 151852Z 02004KT 34/15 A301 RMK A01 T03400146  RH  031%=      5-min Rain = 0
KPG1 151853Z 04004KT 34/15 A301 RMK A01 T03380147  RH  032%=      5-min Rain = 0
KPG1 151854Z 06005KT 34/15 A301 RMK A01 T03360148  RH  032%=      5-min Rain = 0
KPG1 151855Z 08001KT 34/15 A301 RMK A01 T03370148  RH  032%=      5-min Rain = 0
KPG1 151856Z 26000KT 34/15 A3009 RMK A01 T03370150  RH  033%=      5-min Rain = 0
KPG1 151857Z 28001KT 34/15 A3009 RMK A01 T03370149  RH  032%=      5-min Rain = 0
KPG1 151858Z 28001KT 34/15 A3009 RMK A01 T03380149  RH  032%=      5-min Rain = 0
KPG1 151859Z 01001KT 34/15 A3009 RMK A01 T03390148  RH  032%=      5-min Rain = 0
KPG1 151900Z 35004KT 34/15 A3009 RMK A01 T03390148  RH  032%=      5-min Rain = 0
KPG1 151901Z 36005KT 34/15 A3009 RMK A01 T03390148  RH  032%=      5-min Rain = 0
KPG1 151902Z 35005KT 34/15 A3009 RMK A01 T03410148  RH  031%=      5-min Rain = 0
KPG1 151903Z 35005KT 34/15 A3009 RMK A01 T03400148  RH  032%=      5-min Rain = 0
KPG1 151904Z 01004KT 34/15 A3009 RMK A01 T03400148  RH  032%=      5-min Rain = 0
KPG1 151905Z 00005KT 34/15 A3009 RMK A01 T03420150  RH  032%=      5-min Rain = 0
KPG1 151906Z 35003KT 35/15 A3009 RMK A01 T03470152  RH  031%=      5-min Rain = 0
KPG1 151907Z 18001KT 35/15 A3009 RMK A01 T03480150  RH  031%=      5-min Rain = 0
KPG1 151908Z 16004KT 35/15 A3009 RMK A01 T03490151  RH  031%=      5-min Rain = 0
KPG1 151909Z 16002KT 35/15 A3009 RMK A01 T03510149  RH  030%=      5-min Rain = 0
KPG1 151910Z 17001KT 35/15 A3009 RMK A01 T03520149  RH  030%=      5-min Rain = 0
KPG1 151911Z 17005KT 35/15 A3009 RMK A01 T03530148  RH  029%=      5-min Rain = 0
KPG1 151912Z 17008KT 36/15 A3008 RMK A01 T03550147  RH  029%=      5-min Rain = 0
KPG1 151913Z 16004KT 36/14 A3008 RMK A01 T03560140  RH  027%=      5-min Rain = 0
KPG1 151914Z 15008KT 36/14 A3008 RMK A01 T03560141  RH  028%=      5-min Rain = 0
KPG1 151915Z 17004KT 36/14 A3008 RMK A01 T03570141  RH  028%=      5-min Rain = 0
KPG1 151916Z 17003KT 36/14 A3008 RMK A01 T03600141  RH  027%=      5-min Rain = 0
KPG1 151917Z 17003KT 36/14 A3008 RMK A01 T03590138  RH  027%=      5-min Rain = 0
KPG1 151918Z 17007KT 36/14 A3008 RMK A01 T03590140  RH  027%=      5-min Rain = 0
KPG1 151919Z 17007KT 36/14 A3008 RMK A01 T03580137  RH  027%=      5-min Rain = 0
KPG1 151920Z 18008KT 36/13 A3008 RMK A01 T03590134  RH  026%=      5-min Rain = 0
KPG1 151921Z 17008KT 36/13 A3008 RMK A01 T03590133  RH  026%=      5-min Rain = 0
KPG1 151922Z 18007KT 36/14 A3008 RMK A01 T03580135  RH  026%=      5-min Rain = 0
KPG1 151923Z 19008KT 36/14 A3008 RMK A01 T03580137  RH  027%=      5-min Rain = 0
KPG1 151924Z 18008KT 36/14 A3008 RMK A01 T03610136  RH  026%=      5-min Rain = 0
KPG1 151925Z 16007KT 36/14 A3008 RMK A01 T03590136  RH  026%=      5-min Rain = 0
KPG1 151926Z 17006KT 36/14 A3008 RMK A01 T03560139  RH  027%=      5-min Rain = 0
KPG1 151927Z 19007KT 36/14 A3008 RMK A01 T03560138  RH  027%=      5-min Rain = 0
KPG1 151928Z 19006KT 36/14 A3008 RMK A01 T03570135  RH  026%=      5-min Rain = 0
KPG1 151929Z 19005KT 35/14 A3008 RMK A01 T03520135  RH  027%=      5-min Rain = 0
KPG1 151930Z 18004KT 35/14 A3008 RMK A01 T03490137  RH  028%=      5-min Rain = 0
KPG1 151931Z 17003KT 35/14 A3008 RMK A01 T03510138  RH  028%=      5-min Rain = 0
KPG1 151932Z 22004KT 35/14 A3008 RMK A01 T03530139  RH  028%=      5-min Rain = 0
KPG1 151933Z 20003KT 35/14 A3008 RMK A01 T03520140  RH  028%=      5-min Rain = 0
KPG1 151934Z 17005KT 35/14 A3007 RMK A01 T03530139  RH  028%=      5-min Rain = 0
KPG1 151935Z 15007KT 36/14 A3007 RMK A01 T03560139  RH  027%=      5-min Rain = 0
KPG1 151936Z 15007KT 36/14 A3007 RMK A01 T03550140  RH  028%=      5-min Rain = 0
KPG1 151937Z 16004KT 35/14 A3007 RMK A01 T03530138  RH  028%=      5-min Rain = 0
KPG1 151938Z 17001KT 35/14 A3007 RMK A01 T03520137  RH  028%=      5-min Rain = 0
KPG1 151939Z 15004KT 35/14 A3007 RMK A01 T03510138  RH  028%=      5-min Rain = 0
KPG1 151940Z 16005KT 36/14 A3007 RMK A01 T03550140  RH  028%=      5-min Rain = 0
KPG1 151941Z 18003KT 36/14 A3007 RMK A01 T03590139  RH  027%=      5-min Rain = 0
KPG1 151942Z 13002KT 36/14 A3007 RMK A01 T03610140  RH  027%=      5-min Rain = 0
KPG1 151943Z 24001KT 36/14 A3007 RMK A01 T03630140  RH  026%=      5-min Rain = 0
KPG1 151944Z 21004KT 36/14 A3007 RMK A01 T03640139  RH  026%=      5-min Rain = 0
KPG1 151945Z 18004KT 37/14 A3007 RMK A01 T03650141  RH  026%=      5-min Rain = 0
KPG1 151946Z 16006KT 37/14 A3007 RMK A01 T03680140  RH  026%=      5-min Rain = 0
KPG1 151947Z 13008KT 37/14 A3007 RMK A01 T03670140  RH  026%=      5-min Rain = 0
KPG1 151948Z 10006KT 36/14 A3007 RMK A01 T03610135  RH  026%=      5-min Rain = 0
KPG1 151949Z 09005KT 35/13 A3006 RMK A01 T03530134  RH  027%=      5-min Rain = 0
KPG1 151950Z 09004KT 35/14 A3006 RMK A01 T03520135  RH  027%=      5-min Rain = 0
KPG1 151951Z 08006KT 35/14 A3006 RMK A01 T03530137  RH  027%=      5-min Rain = 0
KPG1 151952Z 09008KT 36/14 A3006 RMK A01 T03560137  RH  027%=      5-min Rain = 0
KPG1 151953Z 11006KT 36/14 A3006 RMK A01 T03590136  RH  026%=      5-min Rain = 0
KPG1 151954Z 16003KT 36/14 A3006 RMK A01 T03570136  RH  027%=      5-min Rain = 0
KPG1 151955Z 17001KT 35/14 A3006 RMK A01 T03540135  RH  027%=      5-min Rain = 0
KPG1 151956Z 18001KT 35/14 A3006 RMK A01 T03510135  RH  027%=      5-min Rain = 0
KPG1 151957Z 16001KT 35/14 A3006 RMK A01 T03500135  RH  027%=      5-min Rain = 0
KPG1 151958Z 17002KT 35/14 A3006 RMK A01 T03530137  RH  027%=      5-min Rain = 0
KPG1 151959Z 09004KT 36/14 A3006 RMK A01 T03570138  RH  027%=      5-min Rain = 0
KPG1 152000Z 09006KT 36/14 A3005 RMK A01 T03600139  RH  027%=      5-min Rain = 0
KPG1 152001Z 08006KT 36/14 A3005 RMK A01 T03590139  RH  027%=      5-min Rain = 0
KPG1 152002Z 10006KT 36/14 A3005 RMK A01 T03570138  RH  027%=      5-min Rain = 0
KPG1 152003Z 10006KT 36/14 A3005 RMK A01 T03550139  RH  027%=      5-min Rain = 0
KPG1 152004Z 12003KT 36/14 A3005 RMK A01 T03550138  RH  027%=      5-min Rain = 0
KPG1 152005Z 07003KT 35/14 A3005 RMK A01 T03540139  RH  028%=      5-min Rain = 0
KPG1 152006Z 09003KT 36/14 A3005 RMK A01 T03580141  RH  027%=      5-min Rain = 0
KPG1 152007Z 19004KT 36/14 A3005 RMK A01 T03630142  RH  027%=      5-min Rain = 0
KPG1 152008Z 17003KT 37/14 A3005 RMK A01 T03670140  RH  026%=      5-min Rain = 0
KPG1 152009Z 14005KT 37/14 A3005 RMK A01 T03660141  RH  026%=      5-min Rain = 0
KPG1 152010Z 12004KT 37/14 A3005 RMK A01 T03660140  RH  026%=      5-min Rain = 0
KPG1 152011Z 09003KT 36/14 A3005 RMK A01 T03630138  RH  026%=      5-min Rain = 0
KPG1 152012Z 14004KT 36/14 A3004 RMK A01 T03620139  RH  026%=      5-min Rain = 0
KPG1 152013Z 13003KT 36/14 A3004 RMK A01 T03630138  RH  026%=      5-min Rain = 0
KPG1 152014Z 12004KT 36/14 A3004 RMK A01 T03630138  RH  026%=      5-min Rain = 0
KPG1 152015Z 13004KT 36/14 A3004 RMK A01 T03630139  RH  026%=      5-min Rain = 0
KPG1 152016Z 12005KT 37/14 A3004 RMK A01 T03660140  RH  026%=      5-min Rain = 0
KPG1 152017Z 12006KT 37/14 A3004 RMK A01 T03660138  RH  026%=      5-min Rain = 0
KPG1 152018Z 10005KT 36/14 A3004 RMK A01 T03630137  RH  026%=      5-min Rain = 0
KPG1 152019Z 10003KT 36/14 A3004 RMK A01 T03600137  RH  026%=      5-min Rain = 0
KPG1 152020Z 10002KT 36/14 A3004 RMK A01 T03580137  RH  027%=      5-min Rain = 0
KPG1 152021Z 02001KT 36/14 A3004 RMK A01 T03580138  RH  027%=      5-min Rain = 0
KPG1 152022Z 28001KT 36/14 A3004 RMK A01 T03600139  RH  027%=      5-min Rain = 0
KPG1 152023Z 30003KT 36/14 A3004 RMK A01 T03630141  RH  027%=      5-min Rain = 0
KPG1 152024Z 28006KT 37/14 A3004 RMK A01 T03660143  RH  026%=      5-min Rain = 0
KPG1 152025Z 28003KT 36/14 A3004 RMK A01 T03640140  RH  026%=      5-min Rain = 0
KPG1 152026Z 25001KT 36/14 A3004 RMK A01 T03610141  RH  027%=      5-min Rain = 0
KPG1 152027Z 24002KT 36/14 A3003 RMK A01 T03630141  RH  027%=      5-min Rain = 0
KPG1 152028Z 18005KT 37/14 A3003 RMK A01 T03650143  RH  027%=      5-min Rain = 0
KPG1 152029Z 16003KT 37/14 A3003 RMK A01 T03670143  RH  026%=      5-min Rain = 0
KPG1 152030Z 12003KT 37/14 A3003 RMK A01 T03670144  RH  027%=      5-min Rain = 0
KPG1 152031Z 16002KT 37/14 A3003 RMK A01 T03680144  RH  026%=      5-min Rain = 0
KPG1 152032Z 18006KT 37/14 A3003 RMK A01 T03710144  RH  026%=      5-min Rain = 0
KPG1 152033Z 17008KT 37/14 A3003 RMK A01 T03720140  RH  025%=      5-min Rain = 0
KPG1 152034Z 18007KT 37/14 A3003 RMK A01 T03680140  RH  026%=      5-min Rain = 0
KPG1 152035Z 18005KT 37/14 A3003 RMK A01 T03650139  RH  026%=      5-min Rain = 0
KPG1 152036Z 18006KT 36/14 A3003 RMK A01 T03630140  RH  026%=      5-min Rain = 0
KPG1 152037Z 18006KT 37/14 A3003 RMK A01 T03650142  RH  026%=      5-min Rain = 0
KPG1 152038Z 16008KT 37/14 A3003 RMK A01 T03700142  RH  026%=      5-min Rain = 0
KPG1 152039Z 16007KT 37/14 A3003 RMK A01 T03710140  RH  025%=      5-min Rain = 0
KPG1 152040Z 17004KT 37/14 A3003 RMK A01 T03670138  RH  025%=      5-min Rain = 0
KPG1 152041Z 12002KT 36/14 A3002 RMK A01 T03630137  RH  026%=      5-min Rain = 0
KPG1 152042Z 15002KT 36/14 A3002 RMK A01 T03610139  RH  027%=      5-min Rain = 0
KPG1 152043Z 14005KT 36/14 A3002 RMK A01 T03640139  RH  026%=      5-min Rain = 0
KPG1 152044Z 15008KT 36/14 A3002 RMK A01 T03640137  RH  026%=      5-min Rain = 0
KPG1 152045Z 14005KT 36/14 A3002 RMK A01 T03640137  RH  026%=      5-min Rain = 0
KPG1 152046Z 15007KT 36/14 A3002 RMK A01 T03640137  RH  026%=      5-min Rain = 0
KPG1 152047Z 15006KT 36/14 A3002 RMK A01 T03630135  RH  026%=      5-min Rain = 0
KPG1 152048Z 14004KT 36/14 A3002 RMK A01 T03600135  RH  026%=      5-min Rain = 0
KPG1 152049Z 15003KT 36/14 A3002 RMK A01 T03590135  RH  026%=      5-min Rain = 0
KPG1 152050Z 18006KT 36/14 A3002 RMK A01 T03610138  RH  026%=      5-min Rain = 0
KPG1 152051Z 23007KT 37/14 A3002 RMK A01 T03680140  RH  026%=      5-min Rain = 0
KPG1 152052Z 20006KT 37/14 A3002 RMK A01 T03720141  RH  025%=      5-min Rain = 0
KPG1 152053Z 22007KT 37/14 A3002 RMK A01 T03740141  RH  025%=      5-min Rain = 0
KPG1 152054Z 21004KT 37/14 A3002 RMK A01 T03730140  RH  025%=      5-min Rain = 0
KPG1 152055Z 22005KT 37/14 A3002 RMK A01 T03690139  RH  025%=      5-min Rain = 0
KPG1 152056Z 24005KT 37/14 A3002 RMK A01 T03680139  RH  026%=      5-min Rain = 0
KPG1 152057Z 25004KT 37/14 A3001 RMK A01 T03670138  RH  026%=      5-min Rain = 0
KPG1 152058Z 25005KT 37/14 A3001 RMK A01 T03650139  RH  026%=      5-min Rain = 0
KPG1 152059Z 26004KT 37/14 A3001 RMK A01 T03650138  RH  026%=      5-min Rain = 0
KPG1 152100Z 26003KT 37/14 A3001 RMK A01 T03650138  RH  026%=      5-min Rain = 0
KPG1 152101Z 26001KT 37/14 A3001 RMK A01 T03660137  RH  026%=      5-min Rain = 0
KPG1 152102Z 17001KT 37/14 A3001 RMK A01 T03680138  RH  025%=      5-min Rain = 0
KPG1 152103Z 15005KT 37/14 A3001 RMK A01 T03710136  RH  025%=      5-min Rain = 0
KPG1 152104Z 15004KT 37/14 A3001 RMK A01 T03730135  RH  024%=      5-min Rain = 0
KPG1 152105Z 16004KT 37/13 A3001 RMK A01 T03720134  RH  024%=      5-min Rain = 0
KPG1 152106Z 19004KT 37/13 A3001 RMK A01 T03690134  RH  025%=      5-min Rain = 0
KPG1 152107Z 20008KT 37/14 A3001 RMK A01 T03690135  RH  025%=      5-min Rain = 0
KPG1 152108Z 21006KT 37/13 A3001 RMK A01 T03690133  RH  025%=      5-min Rain = 0
KPG1 152109Z 24003KT 37/13 A3001 RMK A01 T03660133  RH  025%=      5-min Rain = 0
KPG1 152110Z 22006KT 37/13 A3001 RMK A01 T03660132  RH  025%=      5-min Rain = 0
KPG1 152111Z 22007KT 37/13 A3001 RMK A01 T03680130  RH  024%=      5-min Rain = 0
KPG1 152112Z 21005KT 37/13 A3001 RMK A01 T03680127  RH  024%=      5-min Rain = 0
KPG1 152113Z 20004KT 37/13 A3001 RMK A01 T03650129  RH  024%=      5-min Rain = 0
KPG1 152114Z 13002KT 36/13 A30 RMK A01 T03640129  RH  025%=      5-min Rain = 0
KPG1 152115Z 12003KT 36/13 A30 RMK A01 T03630132  RH  025%=      5-min Rain = 0
KPG1 152116Z 12002KT 36/13 A30 RMK A01 T03630134  RH  025%=      5-min Rain = 0
KPG1 152117Z 19004G9KT 37/14 A30 RMK A01 T03670136  RH  025%=      5-min Rain = 0
KPG1 152118Z 15006KT 37/14 A30 RMK A01 T03720138  RH  025%=      5-min Rain = 0
KPG1 152119Z 16007KT 37/14 A30 RMK A01 T03740137  RH  024%=      5-min Rain = 0
KPG1 152120Z 14005KT 37/14 A30 RMK A01 T03730135  RH  024%=      5-min Rain = 0
KPG1 152121Z 17002KT 37/13 A30 RMK A01 T03670134  RH  025%=      5-min Rain = 0
KPG1 152122Z 19002KT 36/13 A30 RMK A01 T03640134  RH  025%=      5-min Rain = 0
KPG1 152123Z 17004KT 36/14 A30 RMK A01 T03630135  RH  026%=      5-min Rain = 0
KPG1 152124Z 19004KT 37/14 A30 RMK A01 T03650137  RH  026%=      5-min Rain = 0
KPG1 152125Z 18004KT 37/14 A30 RMK A01 T03680136  RH  025%=      5-min Rain = 0
KPG1 152126Z 19004KT 37/14 A30 RMK A01 T03680136  RH  025%=      5-min Rain = 0
KPG1 152127Z 16002KT 37/14 A30 RMK A01 T03680137  RH  025%=      5-min Rain = 0
KPG1 152128Z 19006KT 37/14 A30 RMK A01 T03710138  RH  025%=      5-min Rain = 0
KPG1 152129Z 21006KT 38/14 A30 RMK A01 T03750138  RH  024%=      5-min Rain = 0
KPG1 152130Z 22006KT 37/14 A30 RMK A01 T03740138  RH  025%=      5-min Rain = 0
KPG1 152131Z 22004KT 37/14 A30 RMK A01 T03710136  RH  025%=      5-min Rain = 0
KPG1 152132Z 22003KT 37/14 A30 RMK A01 T03670135  RH  025%=      5-min Rain = 0
KPG1 152133Z 22004KT 37/14 A30 RMK A01 T03670136  RH  025%=      5-min Rain = 0
KPG1 152134Z 24002KT 37/14 A2999 RMK A01 T03680136  RH  025%=      5-min Rain = 0
KPG1 152135Z 29001KT 37/14 A2999 RMK A01 T03690137  RH  025%=      5-min Rain = 0
KPG1 152136Z 08001KT 37/14 A2999 RMK A01 T03710137  RH  025%=      5-min Rain = 0
KPG1 152137Z 01002KT 37/14 A2999 RMK A01 T03740138  RH  024%=      5-min Rain = 0
KPG1 152138Z 02003KT 38/14 A2999 RMK A01 T03750137  RH  024%=      5-min Rain = 0
KPG1 152139Z 05005KT 38/14 A2999 RMK A01 T03760137  RH  024%=      5-min Rain = 0
KPG1 152140Z 05006KT 37/13 A2999 RMK A01 T03730134  RH  024%=      5-min Rain = 0
KPG1 152141Z 36004KT 37/13 A2999 RMK A01 T03690134  RH  025%=      5-min Rain = 0
KPG1 152142Z 35003KT 37/13 A2999 RMK A01 T03680134  RH  025%=      5-min Rain = 0
KPG1 152143Z 30002KT 37/13 A2999 RMK A01 T03660134  RH  025%=      5-min Rain = 0
KPG1 152144Z 27002KT 37/13 A2999 RMK A01 T03650134  RH  025%=      5-min Rain = 0
KPG1 152145Z 32003KT 37/14 A2999 RMK A01 T03650135  RH  025%=      5-min Rain = 0
KPG1 152146Z 03002KT 37/14 A2999 RMK A01 T03690136  RH  025%=      5-min Rain = 0
KPG1 152147Z 07003KT 37/14 A2999 RMK A01 T03730135  RH  024%=      5-min Rain = 0
KPG1 152148Z 04004KT 37/13 A2999 RMK A01 T03710133  RH  024%=      5-min Rain = 0
KPG1 152149Z 08006KT 37/13 A2999 RMK A01 T03710132  RH  024%=      5-min Rain = 0
KPG1 152150Z 06005G10KT 37/13 A2999 RMK A01 T03690131  RH  024%=      5-min Rain = 0
KPG1 152151Z 05007KT 37/13 A2999 RMK A01 T03690131  RH  024%=      5-min Rain = 0
KPG1 152152Z 03005KT 37/13 A2999 RMK A01 T03690131  RH  024%=      5-min Rain = 0
KPG1 152153Z 03005KT 37/13 A2999 RMK A01 T03690130  RH  024%=      5-min Rain = 0
KPG1 152154Z 06007KT 37/13 A2999 RMK A01 T03700130  RH  024%=      5-min Rain = 0
KPG1 152155Z 07011KT 37/13 A2999 RMK A01 T03740127  RH  023%=      5-min Rain = 0
KPG1 152156Z 08009KT 37/12 A2999 RMK A01 T03700124  RH  023%=      5-min Rain = 0
KPG1 152157Z 08007KT 37/13 A2999 RMK A01 T03650126  RH  024%=      5-min Rain = 0
KPG1 152158Z 06008KT 36/13 A2999 RMK A01 T03640127  RH  024%=      5-min Rain = 0
KPG1 152159Z 05009KT 37/13 A2999 RMK A01 T03660126  RH  024%=      5-min Rain = 0
KPG1 152200Z 06007KT 37/13 A2999 RMK A01 T03660126  RH  024%=      5-min Rain = 0
KPG1 152201Z 08007KT 37/13 A2999 RMK A01 T03710128  RH  023%=      5-min Rain = 0
KPG1 152202Z 07009KT 37/13 A2999 RMK A01 T03720125  RH  023%=      5-min Rain = 0
KPG1 152203Z 06008KT 37/12 A2999 RMK A01 T03710124  RH  023%=      5-min Rain = 0
KPG1 152204Z 05008KT 37/12 A2999 RMK A01 T03690124  RH  023%=      5-min Rain = 0
KPG1 152205Z 04005KT 37/12 A2999 RMK A01 T03670123  RH  023%=      5-min Rain = 0
KPG1 152206Z 02002KT 37/12 A2998 RMK A01 T03650123  RH  023%=      5-min Rain = 0
KPG1 152207Z 00004KT 37/13 A2998 RMK A01 T03650126  RH  024%=      5-min Rain = 0
KPG1 152208Z 34004KT 37/13 A2998 RMK A01 T03670127  RH  024%=      5-min Rain = 0
KPG1 152209Z 00003KT 37/13 A2998 RMK A01 T03660126  RH  024%=      5-min Rain = 0
KPG1 152210Z 36003KT 37/13 A2998 RMK A01 T03650126  RH  024%=      5-min Rain = 0
KPG1 152211Z 34002KT 37/13 A2998 RMK A01 T03650126  RH  024%=      5-min Rain = 0
KPG1 152212Z 33001KT 37/13 A2998 RMK A01 T03650126  RH  024%=      5-min Rain = 0
KPG1 152213Z 07005KT 37/13 A2998 RMK A01 T03660128  RH  024%=      5-min Rain = 0
KPG1 152214Z 04004KT 37/13 A2998 RMK A01 T03710129  RH  023%=      5-min Rain = 0
KPG1 152215Z 02008KT 37/13 A2998 RMK A01 T03730131  RH  024%=      5-min Rain = 0
KPG1 152216Z 35005KT 37/13 A2998 RMK A01 T03700133  RH  024%=      5-min Rain = 0
KPG1 152217Z 34005KT 37/13 A2998 RMK A01 T03670134  RH  025%=      5-min Rain = 0
KPG1 152218Z 34004KT 37/13 A2998 RMK A01 T03660134  RH  025%=      5-min Rain = 0
KPG1 152219Z 08004KT 37/13 A2998 RMK A01 T03680133  RH  025%=      5-min Rain = 0
KPG1 152220Z 07004KT 37/13 A2998 RMK A01 T03700134  RH  024%=      5-min Rain = 0
KPG1 152221Z 05007KT 37/14 A2998 RMK A01 T03720139  RH  025%=      5-min Rain = 0
KPG1 152222Z 03009KT 37/14 A2998 RMK A01 T03740139  RH  025%=      5-min Rain = 0
KPG1 152223Z 07015KT 37/14 A2997 RMK A01 T03740139  RH  025%=      5-min Rain = 0
KPG1 152224Z 11011KT 38/14 A2998 RMK A01 T03760138  RH  024%=      5-min Rain = 0
KPG1 152225Z 09005KT 38/14 A2998 RMK A01 T03770138  RH  024%=      5-min Rain = 0
KPG1 152226Z 04005KT 38/14 A2998 RMK A01 T03750138  RH  024%=      5-min Rain = 0
KPG1 152227Z 04007KT 37/14 A2998 RMK A01 T03730135  RH  024%=      5-min Rain = 0
KPG1 152228Z 08007KT 37/14 A2998 RMK A01 T03740138  RH  025%=      5-min Rain = 0
KPG1 152229Z 06009KT 38/14 A2998 RMK A01 T03750135  RH  024%=      5-min Rain = 0
KPG1 152230Z 06012G18KT 38/13 A2998 RMK A01 T03750134  RH  024%=      5-min Rain = 0
KPG1 152231Z 06014KT 37/13 A2998 RMK A01 T03740131  RH  023%=      5-min Rain = 0
KPG1 152232Z 06008KT 37/13 A2998 RMK A01 T03690130  RH  024%=      5-min Rain = 0
KPG1 152233Z 09008KT 37/13 A2998 RMK A01 T03710134  RH  024%=      5-min Rain = 0
KPG1 152234Z 06008KT 37/13 A2998 RMK A01 T03730133  RH  024%=      5-min Rain = 0
KPG1 152235Z 08008KT 37/14 A2998 RMK A01 T03710135  RH  024%=      5-min Rain = 0
KPG1 152236Z 07008KT 38/14 A2998 RMK A01 T03750136  RH  024%=      5-min Rain = 0
KPG1 152237Z 09005KT 38/14 A2998 RMK A01 T03790138  RH  024%=      5-min Rain = 0
KPG1 152238Z 08004KT 38/14 A2998 RMK A01 T03810137  RH  023%=      5-min Rain = 0
KPG1 152239Z 12005KT 38/14 A2998 RMK A01 T03810135  RH  023%=      5-min Rain = 0
KPG1 152240Z 12005KT 38/14 A2998 RMK A01 T03790138  RH  024%=      5-min Rain = 0
KPG1 152241Z 13008KT 38/14 A2998 RMK A01 T03750142  RH  025%=      5-min Rain = 0
KPG1 152242Z 14006KT 37/14 A2998 RMK A01 T03680142  RH  026%=      5-min Rain = 0
KPG1 152243Z 13005KT 37/14 A2998 RMK A01 T03650142  RH  027%=      5-min Rain = 0
KPG1 152244Z 14009KT 36/14 A2997 RMK A01 T03630143  RH  027%=      5-min Rain = 0
KPG1 152245Z 13010KT 36/15 A2997 RMK A01 T03630145  RH  027%=      5-min Rain = 0
KPG1 152246Z 13005KT 36/15 A2998 RMK A01 T03620145  RH  027%=      5-min Rain = 0
KPG1 152247Z 14007KT 36/15 A2997 RMK A01 T03630146  RH  027%=      5-min Rain = 0
KPG1 152248Z 10006KT 37/15 A2998 RMK A01 T03650146  RH  027%=      5-min Rain = 0
KPG1 152249Z 13005KT 37/15 A2998 RMK A01 T03670146  RH  027%=      5-min Rain = 0
KPG1 152250Z 16004KT 37/15 A2998 RMK A01 T03690146  RH  027%=      5-min Rain = 0
KPG1 152251Z 15002KT 37/15 A2998 RMK A01 T03710145  RH  026%=      5-min Rain = 0
KPG1 152252Z 10001KT 37/15 A2998 RMK A01 T03710145  RH  026%=      5-min Rain = 0
KPG1 152253Z 15003KT 37/15 A2998 RMK A01 T03740146  RH  026%=      5-min Rain = 0
KPG1 152254Z 16006KT 38/15 A2998 RMK A01 T03750146  RH  026%=      5-min Rain = 0
KPG1 152255Z 15007KT 38/15 A2998 RMK A01 T03770146  RH  025%=      5-min Rain = 0
KPG1 152256Z 15008KT 37/14 A2997 RMK A01 T03740144  RH  025%=      5-min Rain = 0
KPG1 152257Z 16014KT 37/14 A2997 RMK A01 T03720144  RH  026%=      5-min Rain = 0
KPG1 152258Z 15010KT 37/14 A2997 RMK A01 T03720142  RH  025%=      5-min Rain = 0
KPG1 152259Z 16009G14KT 37/14 A2997 RMK A01 T03690140  RH  026%=      5-min Rain = 0
KPG1 152300Z 14011KT 37/14 A2997 RMK A01 T03680140  RH  026%=      5-min Rain = 0
KPG1 152301Z 15007KT 37/14 A2997 RMK A01 T03670139  RH  026%=      5-min Rain = 0
KPG1 152302Z 08006KT 37/14 A2997 RMK A01 T03660139  RH  026%=      5-min Rain = 0
KPG1 152303Z 09004KT 37/14 A2997 RMK A01 T03660139  RH  026%=      5-min Rain = 0
KPG1 152304Z 08003KT 37/14 A2997 RMK A01 T03660140  RH  026%=      5-min Rain = 0
KPG1 152305Z 10004KT 37/14 A2997 RMK A01 T03660140  RH  026%=      5-min Rain = 0
KPG1 152306Z 07002KT 37/14 A2997 RMK A01 T03680140  RH  026%=      5-min Rain = 0
KPG1 152307Z 09004KT 37/14 A2997 RMK A01 T03700140  RH  025%=      5-min Rain = 0
KPG1 152308Z 14004KT 37/14 A2997 RMK A01 T03720139  RH  025%=      5-min Rain = 0
KPG1 152309Z 15007KT 37/14 A2997 RMK A01 T03740141  RH  025%=      5-min Rain = 0
KPG1 152310Z 15007KT 38/14 A2997 RMK A01 T03760139  RH  024%=      5-min Rain = 0
KPG1 152311Z 10006KT 37/14 A2997 RMK A01 T03740139  RH  025%=      5-min Rain = 0
KPG1 152312Z 10006KT 37/14 A2997 RMK A01 T03720138  RH  025%=      5-min Rain = 0
KPG1 152313Z 08006KT 37/14 A2997 RMK A01 T03690136  RH  025%=      5-min Rain = 0
KPG1 152314Z 05005KT 37/13 A2997 RMK A01 T03660134  RH  025%=      5-min Rain = 0
KPG1 152315Z 10009G15KT 37/14 A2997 RMK A01 T03660135  RH  025%=      5-min Rain = 0
KPG1 152316Z 12008KT 37/14 A2997 RMK A01 T03680135  RH  025%=      5-min Rain = 0
KPG1 152317Z 12009KT 37/14 A2997 RMK A01 T03680135  RH  025%=      5-min Rain = 0
KPG1 152318Z 12011KT 37/14 A2997 RMK A01 T03680135  RH  025%=      5-min Rain = 0
KPG1 152319Z 12009KT 37/14 A2997 RMK A01 T03680135  RH  025%=      5-min Rain = 0
KPG1 152320Z 12008KT 37/14 A2997 RMK A01 T03680135  RH  025%=      5-min Rain = 0
KPG1 152321Z 13010KT 37/13 A2996 RMK A01 T03690134  RH  025%=      5-min Rain = 0
KPG1 152322Z 13009KT 37/14 A2996 RMK A01 T03680135  RH  025%=      5-min Rain = 0
KPG1 152323Z 14007KT 37/13 A2996 RMK A01 T03670133  RH  025%=      5-min Rain = 0
KPG1 152324Z 12004KT 37/13 A2996 RMK A01 T03650133  RH  025%=      5-min Rain = 0
KPG1 152325Z 10003KT 36/13 A2997 RMK A01 T03640134  RH  025%=      5-min Rain = 0
KPG1 152326Z 15006KT 37/13 A2997 RMK A01 T03650133  RH  025%=      5-min Rain = 0
KPG1 152327Z 13008KT 37/13 A2996 RMK A01 T03670133  RH  025%=      5-min Rain = 0
KPG1 152328Z 09005KT 37/13 A2997 RMK A01 T03690132  RH  024%=      5-min Rain = 0
KPG1 152329Z 05006KT 37/13 A2997 RMK A01 T03690132  RH  024%=      5-min Rain = 0
KPG1 152330Z 06003KT 37/13 A2996 RMK A01 T03680130  RH  024%=      5-min Rain = 0
KPG1 152331Z 06006KT 37/13 A2996 RMK A01 T03660130  RH  024%=      5-min Rain = 0
KPG1 152332Z 11006KT 37/13 A2996 RMK A01 T03660131  RH  024%=      5-min Rain = 0
KPG1 152333Z 13010KT 37/13 A2996 RMK A01 T03660129  RH  024%=      5-min Rain = 0
KPG1 152334Z 13010KT 37/13 A2996 RMK A01 T03650128  RH  024%=      5-min Rain = 0
KPG1 152335Z 13008KT 36/13 A2996 RMK A01 T03630127  RH  024%=      5-min Rain = 0
KPG1 152336Z 14007KT 36/13 A2996 RMK A01 T03620128  RH  025%=      5-min Rain = 0
KPG1 152337Z 14005KT 36/13 A2996 RMK A01 T03600126  RH  024%=      5-min Rain = 0
KPG1 152338Z 15003KT 36/13 A2996 RMK A01 T03590125  RH  025%=      5-min Rain = 0
KPG1 152339Z 14004KT 36/13 A2996 RMK A01 T03580126  RH  025%=      5-min Rain = 0
KPG1 152340Z 12007KT 36/13 A2996 RMK A01 T03580127  RH  025%=      5-min Rain = 0
KPG1 152341Z 10008KT 36/13 A2996 RMK A01 T03600127  RH  025%=      5-min Rain = 0
KPG1 152342Z 06012KT 36/13 A2996 RMK A01 T03600127  RH  025%=      5-min Rain = 0
KPG1 152343Z 08005G10KT 36/13 A2996 RMK A01 T03600129  RH  025%=      5-min Rain = 0
KPG1 152344Z 06011G20KT 36/13 A2996 RMK A01 T03600134  RH  026%=      5-min Rain = 0
KPG1 152345Z 08011G17KT 36/14 A2996 RMK A01 T03600141  RH  027%=      5-min Rain = 0
KPG1 152346Z 10011KT 36/14 A2996 RMK A01 T03590135  RH  026%=      5-min Rain = 0
KPG1 152347Z 11008KT 36/13 A2996 RMK A01 T03600132  RH  025%=      5-min Rain = 0
KPG1 152348Z 11012G18KT 36/14 A2996 RMK A01 T03630135  RH  026%=      5-min Rain = 0
KPG1 152349Z 13014KT 36/14 A2996 RMK A01 T03620140  RH  027%=      5-min Rain = 0
KPG1 152350Z 11016G21KT 36/14 A2996 RMK A01 T03600142  RH  027%=      5-min Rain = 0
KPG1 152351Z 10014KT 36/14 A2996 RMK A01 T03580140  RH  027%=      5-min Rain = 0
KPG1 152352Z 10014KT 36/14 A2996 RMK A01 T03560141  RH  028%=      5-min Rain = 0
KPG1 152353Z 10011KT 36/14 A2997 RMK A01 T03560142  RH  028%=      5-min Rain = 0
KPG1 152354Z 09012KT 36/14 A2997 RMK A01 T03560143  RH  028%=      5-min Rain = 0
KPG1 152355Z 10014G19KT 36/14 A2997 RMK A01 T03550143  RH  028%=      5-min Rain = 0
KPG1 152356Z 11012KT 35/15 A2997 RMK A01 T03540145  RH  029%=      5-min Rain = 0
KPG1 152357Z 08011KT 35/15 A2997 RMK A01 T03540146  RH  029%=      5-min Rain = 0
KPG1 152358Z 13011G16KT 35/15 A2997 RMK A01 T03520147  RH  029%=      5-min Rain = 0
KPG1 152359Z 12012KT 35/15 A2997 RMK A01 T03520147  RH  029%=      5-min Rain = 0
KPG1 160000Z 13013KT 35/15 A2997 RMK A01 T03530147  RH  029%=      5-min Rain = 0
KPG1 160001Z 09010G16KT 35/15 A2997 RMK A01 T03540147  RH  029%=      5-min Rain = 0
KPG1 160002Z 10007KT 35/15 A2997 RMK A01 T03530146  RH  029%=      5-min Rain = 0
KPG1 160003Z 13012KT 35/15 A2997 RMK A01 T03520147  RH  029%=      5-min Rain = 0
KPG1 160004Z 13014G19KT 35/15 A2997 RMK A01 T03530147  RH  029%=      5-min Rain = 0
KPG1 160005Z 13015G20KT 35/15 A2997 RMK A01 T03540147  RH  029%=      5-min Rain = 0
KPG1 160006Z 12011KT 35/15 A2997 RMK A01 T03540149  RH  029%=      5-min Rain = 0
KPG1 160007Z 11010G15KT 35/15 A2997 RMK A01 T03530149  RH  029%=      5-min Rain = 0
KPG1 160008Z 11012KT 35/15 A2997 RMK A01 T03530149  RH  030%=      5-min Rain = 0
KPG1 160009Z 12014KT 35/15 A2997 RMK A01 T03510148  RH  030%=      5-min Rain = 0
KPG1 160010Z 12013KT 35/15 A2997 RMK A01 T03510149  RH  030%=      5-min Rain = 0
KPG1 160011Z 13014KT 35/15 A2997 RMK A01 T03520149  RH  030%=      5-min Rain = 0
KPG1 160012Z 13013KT 35/15 A2997 RMK A01 T03520147  RH  029%=      5-min Rain = 0
KPG1 160013Z 13014KT 35/15 A2997 RMK A01 T03510146  RH  029%=      5-min Rain = 0
KPG1 160014Z 13013KT 35/15 A2997 RMK A01 T03500146  RH  029%=      5-min Rain = 0
KPG1 160015Z 11008KT 35/15 A2997 RMK A01 T03510147  RH  030%=      5-min Rain = 0
KPG1 160016Z 11011KT 35/15 A2997 RMK A01 T03520147  RH  029%=      5-min Rain = 0
KPG1 160017Z 13012KT 35/15 A2997 RMK A01 T03520147  RH  029%=      5-min Rain = 0
KPG1 160018Z 12011KT 35/15 A2997 RMK A01 T03520147  RH  029%=      5-min Rain = 0
KPG1 160019Z 11009KT 35/15 A2997 RMK A01 T03510147  RH  029%=      5-min Rain = 0
KPG1 160020Z 11007KT 35/15 A2997 RMK A01 T03520146  RH  029%=      5-min Rain = 0
KPG1 160021Z 11007KT 35/15 A2997 RMK A01 T03520146  RH  029%=      5-min Rain = 0
KPG1 160022Z 11008KT 35/15 A2997 RMK A01 T03520145  RH  029%=      5-min Rain = 0
KPG1 160023Z 13012KT 35/15 A2997 RMK A01 T03520146  RH  029%=      5-min Rain = 0
KPG1 160024Z 12009KT 35/15 A2998 RMK A01 T03510146  RH  029%=      5-min Rain = 0
KPG1 160025Z 12009KT 35/15 A2998 RMK A01 T03500146  RH  030%=      5-min Rain = 0
KPG1 160026Z 11010KT 35/15 A2998 RMK A01 T03490145  RH  030%=      5-min Rain = 0
KPG1 160027Z 13010KT 35/15 A2998 RMK A01 T03490145  RH  030%=      5-min Rain = 0
KPG1 160028Z 14013KT 35/14 A2997 RMK A01 T03490144  RH  029%=      5-min Rain = 0
KPG1 160029Z 10010KT 35/14 A2998 RMK A01 T03490144  RH  029%=      5-min Rain = 0
KPG1 160030Z 12010KT 35/15 A2998 RMK A01 T03490145  RH  029%=      5-min Rain = 0
KPG1 160031Z 13007KT 35/15 A2998 RMK A01 T03490145  RH  029%=      5-min Rain = 0
KPG1 160032Z 13009KT 35/15 A2998 RMK A01 T03490145  RH  029%=      5-min Rain = 0
KPG1 160033Z 12011KT 35/15 A2998 RMK A01 T03490145  RH  030%=      5-min Rain = 0
KPG1 160034Z 13010KT 35/15 A2998 RMK A01 T03490146  RH  030%=      5-min Rain = 0
KPG1 160035Z 12009KT 35/15 A2998 RMK A01 T03490146  RH  030%=      5-min Rain = 0
KPG1 160036Z 12009KT 35/15 A2998 RMK A01 T03480146  RH  030%=      5-min Rain = 0
KPG1 160037Z 13011KT 35/15 A2998 RMK A01 T03480146  RH  030%=      5-min Rain = 0
KPG1 160038Z 12010KT 35/15 A2998 RMK A01 T03480145  RH  030%=      5-min Rain = 0
KPG1 160039Z 12007KT 35/15 A2998 RMK A01 T03470145  RH  030%=      5-min Rain = 0
KPG1 160040Z 12010KT 35/15 A2998 RMK A01 T03470145  RH  030%=      5-min Rain = 0
KPG1 160041Z 11010KT 35/15 A2998 RMK A01 T03470145  RH  030%=      5-min Rain = 0
KPG1 160042Z 12006KT 35/15 A2998 RMK A01 T03460145  RH  030%=      5-min Rain = 0
KPG1 160043Z 12009G14KT 35/15 A2998 RMK A01 T03460145  RH  030%=      5-min Rain = 0
KPG1 160044Z 12009KT 35/15 A2998 RMK A01 T03460145  RH  030%=      5-min Rain = 0
KPG1 160045Z 13009KT 35/15 A2998 RMK A01 T03460145  RH  030%=      5-min Rain = 0
KPG1 160046Z 13009KT 35/15 A2998 RMK A01 T03460146  RH  030%=      5-min Rain = 0
KPG1 160047Z 13009KT 35/15 A2998 RMK A01 T03460145  RH  030%=      5-min Rain = 0
KPG1 160048Z 12010KT 35/15 A2998 RMK A01 T03450145  RH  030%=      5-min Rain = 0
KPG1 160049Z 12010KT 35/15 A2998 RMK A01 T03450145  RH  030%=      5-min Rain = 0
KPG1 160050Z 13010KT 34/14 A2998 RMK A01 T03440144  RH  030%=      5-min Rain = 0
KPG1 160051Z 12009KT 34/14 A2998 RMK A01 T03430144  RH  030%=      5-min Rain = 0
KPG1 160052Z 11009KT 34/14 A2998 RMK A01 T03430143  RH  030%=      5-min Rain = 0
KPG1 160053Z 13010KT 34/14 A2998 RMK A01 T03430144  RH  030%=      5-min Rain = 0
KPG1 160054Z 12011KT 34/14 A2998 RMK A01 T03420144  RH  030%=      5-min Rain = 0
KPG1 160055Z 11009KT 34/14 A2998 RMK A01 T03420144  RH  030%=      5-min Rain = 0
KPG1 160056Z 13007KT 34/14 A2998 RMK A01 T03410143  RH  030%=      5-min Rain = 0
KPG1 160057Z 13009KT 34/14 A2998 RMK A01 T03410144  RH  031%=      5-min Rain = 0
KPG1 160058Z 10007KT 34/14 A2998 RMK A01 T03410144  RH  031%=      5-min Rain = 0
KPG1 160059Z 10004KT 34/14 A2998 RMK A01 T03410144  RH  031%=      5-min Rain = 0
KPG1 160100Z 13009KT 34/14 A2998 RMK A01 T03410144  RH  031%=      5-min Rain = 0
KPG1 160101Z 12013KT 34/14 A2998 RMK A01 T03410144  RH  031%=      5-min Rain = 0
KPG1 160102Z 12010G16KT 34/14 A2998 RMK A01 T03410144  RH  031%=      5-min Rain = 0
KPG1 160103Z 12007KT 34/14 A2998 RMK A01 T03400143  RH  031%=      5-min Rain = 0
KPG1 160104Z 12006KT 34/14 A2998 RMK A01 T03400144  RH  031%=      5-min Rain = 0
KPG1 160105Z 09005KT 34/14 A2998 RMK A01 T03400143  RH  031%=      5-min Rain = 0
KPG1 160106Z 13007G14KT 34/14 A2998 RMK A01 T03390143  RH  031%=      5-min Rain = 0
KPG1 160107Z 13011KT 34/14 A2998 RMK A01 T03390143  RH  031%=      5-min Rain = 0
KPG1 160108Z 13011KT 34/14 A2998 RMK A01 T03390142  RH  031%=      5-min Rain = 0
KPG1 160109Z 13011KT 34/14 A2998 RMK A01 T03390142  RH  031%=      5-min Rain = 0
KPG1 160110Z 13008KT 34/14 A2998 RMK A01 T03390142  RH  031%=      5-min Rain = 0
KPG1 160111Z 12011KT 34/14 A2998 RMK A01 T03390142  RH  031%=      5-min Rain = 0
KPG1 160112Z 11012KT 34/14 A2998 RMK A01 T03380142  RH  031%=      5-min Rain = 0
KPG1 160113Z 11010KT 34/14 A2998 RMK A01 T03380143  RH  031%=      5-min Rain = 0
KPG1 160114Z 11008KT 34/14 A2999 RMK A01 T03380143  RH  031%=      5-min Rain = 0
KPG1 160115Z 11007KT 34/14 A2999 RMK A01 T03380143  RH  031%=      5-min Rain = 0
KPG1 160116Z 11009KT 34/14 A2999 RMK A01 T03380143  RH  031%=      5-min Rain = 0
KPG1 160117Z 11011KT 34/14 A2999 RMK A01 T03380143  RH  031%=      5-min Rain = 0
KPG1 160118Z 10011KT 34/14 A2999 RMK A01 T03380142  RH  031%=      5-min Rain = 0
KPG1 160119Z 11007KT 34/14 A2999 RMK A01 T03370142  RH  031%=      5-min Rain = 0
KPG1 160120Z 11007KT 34/14 A2999 RMK A01 T03370143  RH  031%=      5-min Rain = 0
KPG1 160121Z 12006KT 34/14 A2999 RMK A01 T03370143  RH  031%=      5-min Rain = 0
KPG1 160122Z 11009KT 34/14 A2999 RMK A01 T03370143  RH  031%=      5-min Rain = 0
KPG1 160123Z 11009KT 34/14 A2999 RMK A01 T03370143  RH  031%=      5-min Rain = 0
KPG1 160124Z 12008KT 34/14 A2999 RMK A01 T03370144  RH  031%=      5-min Rain = 0
KPG1 160125Z 12010KT 34/14 A2999 RMK A01 T03370143  RH  031%=      5-min Rain = 0
KPG1 160126Z 11008KT 34/14 A2999 RMK A01 T03370143  RH  031%=      5-min Rain = 0
KPG1 160127Z 11008KT 34/14 A2999 RMK A01 T03360143  RH  031%=      5-min Rain = 0
KPG1 160128Z 11008KT 34/14 A2999 RMK A01 T03360143  RH  031%=      5-min Rain = 0
KPG1 160129Z 10008KT 34/14 A2999 RMK A01 T03360143  RH  031%=      5-min Rain = 0
KPG1 160130Z 11009KT 34/14 A2999 RMK A01 T03350143  RH  031%=      5-min Rain = 0
KPG1 160131Z 12008G13KT 34/14 A2999 RMK A01 T03350142  RH  031%=      5-min Rain = 0
KPG1 160132Z 12009KT 34/14 A2999 RMK A01 T03350142  RH  031%=      5-min Rain = 0
KPG1 160133Z 13010KT 34/14 A2998 RMK A01 T03350142  RH  031%=      5-min Rain = 0
KPG1 160134Z 11008KT 34/14 A2999 RMK A01 T03350142  RH  031%=      5-min Rain = 0
KPG1 160135Z 12007KT 34/14 A2999 RMK A01 T03350142  RH  031%=      5-min Rain = 0
KPG1 160136Z 11008KT 34/14 A2999 RMK A01 T03350142  RH  031%=      5-min Rain = 0
KPG1 160137Z 10008KT 34/14 A2999 RMK A01 T03350142  RH  031%=      5-min Rain = 0
KPG1 160138Z 12007KT 34/14 A2999 RMK A01 T03350142  RH  031%=      5-min Rain = 0
KPG1 160139Z 11009KT 34/14 A2999 RMK A01 T03350142  RH  031%=      5-min Rain = 0
KPG1 160140Z 11007KT 34/14 A2999 RMK A01 T03350142  RH  031%=      5-min Rain = 0
KPG1 160141Z 11007KT 34/14 A2999 RMK A01 T03350142  RH  031%=      5-min Rain = 0
KPG1 160142Z 11009KT 34/14 A2999 RMK A01 T03350142  RH  031%=      5-min Rain = 0
KPG1 160143Z 09007KT 34/14 A2999 RMK A01 T03350142  RH  031%=      5-min Rain = 0
KPG1 160144Z 10006KT 34/14 A2999 RMK A01 T03350143  RH  031%=      5-min Rain = 0
KPG1 160145Z 11006KT 33/14 A2999 RMK A01 T03340143  RH  032%=      5-min Rain = 0
KPG1 160146Z 12005KT 33/14 A2999 RMK A01 T03340143  RH  032%=      5-min Rain = 0
KPG1 160147Z 13007KT 33/14 A2999 RMK A01 T03330144  RH  032%=      5-min Rain = 0
KPG1 160148Z 12006KT 33/14 A2999 RMK A01 T03330144  RH  032%=      5-min Rain = 0
KPG1 160149Z 13006KT 33/14 A2999 RMK A01 T03330144  RH  032%=      5-min Rain = 0
KPG1 160150Z 13006KT 33/14 A2999 RMK A01 T03330144  RH  032%=      5-min Rain = 0
KPG1 160151Z 12008KT 33/15 A2999 RMK A01 T03330145  RH  032%=      5-min Rain = 0
KPG1 160152Z 11007KT 33/15 A2999 RMK A01 T03330145  RH  032%=      5-min Rain = 0
KPG1 160153Z 13008G13KT 33/15 A2999 RMK A01 T03330145  RH  032%=      5-min Rain = 0
KPG1 160154Z 11008KT 33/15 A2999 RMK A01 T03320145  RH  032%=      5-min Rain = 0
KPG1 160155Z 11007KT 33/15 A2999 RMK A01 T03320145  RH  032%=      5-min Rain = 0
KPG1 160156Z 10008KT 33/15 A2999 RMK A01 T03330146  RH  032%=      5-min Rain = 0
KPG1 160157Z 10007KT 33/15 A2999 RMK A01 T03330146  RH  032%=      5-min Rain = 0
KPG1 160158Z 11006KT 33/15 A2999 RMK A01 T03330146  RH  033%=      5-min Rain = 0
KPG1 160159Z 12006KT 33/15 A2999 RMK A01 T03320146  RH  033%=      5-min Rain = 0
KPG1 160200Z 12006KT 33/15 A2999 RMK A01 T03320147  RH  033%=      5-min Rain = 0
KPG1 160201Z 12006KT 33/15 A2999 RMK A01 T03310147  RH  033%=      5-min Rain = 0
KPG1 160202Z 11009KT 33/15 A2999 RMK A01 T03310147  RH  033%=      5-min Rain = 0
KPG1 160203Z 10008KT 33/15 A2999 RMK A01 T03310147  RH  033%=      5-min Rain = 0
KPG1 160204Z 13006KT 33/15 A2999 RMK A01 T03310148  RH  033%=      5-min Rain = 0
KPG1 160205Z 11009KT 33/15 A2999 RMK A01 T03310148  RH  033%=      5-min Rain = 0
KPG1 160206Z 13007KT 33/15 A2999 RMK A01 T03310147  RH  033%=      5-min Rain = 0
KPG1 160207Z 11007KT 33/15 A2999 RMK A01 T03310148  RH  033%=      5-min Rain = 0
KPG1 160208Z 11005KT 33/15 A2999 RMK A01 T03310148  RH  033%=      5-min Rain = 0
KPG1 160209Z 12005KT 33/15 A2999 RMK A01 T03310149  RH  033%=      5-min Rain = 0
KPG1 160210Z 11006KT 33/15 A2999 RMK A01 T03310149  RH  033%=      5-min Rain = 0
KPG1 160211Z 13006KT 33/15 A2999 RMK A01 T03300149  RH  034%=      5-min Rain = 0
KPG1 160212Z 11006KT 33/15 A2999 RMK A01 T03300149  RH  034%=      5-min Rain = 0
KPG1 160213Z 12006KT 33/15 A2999 RMK A01 T03300149  RH  034%=      5-min Rain = 0
KPG1 160214Z 12006KT 33/15 A2999 RMK A01 T03300149  RH  034%=      5-min Rain = 0
KPG1 160215Z 13007KT 33/15 A2999 RMK A01 T03290149  RH  034%=      5-min Rain = 0
KPG1 160216Z 13007KT 33/15 A30 RMK A01 T03290149  RH  034%=      5-min Rain = 0
KPG1 160217Z 11006KT 33/15 A30 RMK A01 T03290149  RH  034%=      5-min Rain = 0
KPG1 160218Z 12007KT 33/15 A30 RMK A01 T03290149  RH  034%=      5-min Rain = 0
KPG1 160219Z 09007KT 33/15 A30 RMK A01 T03280150  RH  034%=      5-min Rain = 0
KPG1 160220Z 11005KT 33/15 A30 RMK A01 T03280150  RH  034%=      5-min Rain = 0
KPG1 160221Z 11007KT 33/15 A30 RMK A01 T03280150  RH  034%=      5-min Rain = 0
KPG1 160222Z 11007KT 33/15 A30 RMK A01 T03270150  RH  034%=      5-min Rain = 0
KPG1 160223Z 10007KT 33/15 A30 RMK A01 T03270151  RH  035%=      5-min Rain = 0
KPG1 160224Z 11005KT 33/15 A30 RMK A01 T03270152  RH  035%=      5-min Rain = 0
KPG1 160225Z 11006KT 33/15 A2999 RMK A01 T03260152  RH  035%=      5-min Rain = 0
KPG1 160226Z 11008KT 33/15 A30 RMK A01 T03260152  RH  035%=      5-min Rain = 0
KPG1 160227Z 11009KT 33/15 A2999 RMK A01 T03260152  RH  035%=      5-min Rain = 0
KPG1 160228Z 13007KT 33/15 A30 RMK A01 T03260152  RH  035%=      5-min Rain = 0
KPG1 160229Z 13008KT 33/15 A30 RMK A01 T03260152  RH  035%=      5-min Rain = 0
KPG1 160230Z 13007KT 33/15 A30 RMK A01 T03250152  RH  035%=      5-min Rain = 0
KPG1 160231Z 13010KT 33/15 A30 RMK A01 T03250153  RH  035%=      5-min Rain = 0
KPG1 160232Z 12009KT 33/15 A30 RMK A01 T03250153  RH  035%=      5-min Rain = 0
KPG1 160233Z 12007KT 33/15 A30 RMK A01 T03250153  RH  035%=      5-min Rain = 0
KPG1 160234Z 12007KT 33/15 A30 RMK A01 T03250153  RH  036%=      5-min Rain = 0
KPG1 160235Z 12009KT 33/15 A30 RMK A01 T03250153  RH  036%=      5-min Rain = 0
KPG1 160236Z 13007KT 32/15 A30 RMK A01 T03240153  RH  036%=      5-min Rain = 0
KPG1 160237Z 11006KT 32/15 A30 RMK A01 T03240153  RH  036%=      5-min Rain = 0
KPG1 160238Z 11005KT 32/15 A30 RMK A01 T03240153  RH  036%=      5-min Rain = 0
KPG1 160239Z 12004KT 32/15 A30 RMK A01 T03230153  RH  036%=      5-min Rain = 0
KPG1 160240Z 12007KT 32/15 A30 RMK A01 T03230153  RH  036%=      5-min Rain = 0
KPG1 160241Z 12008KT 32/15 A30 RMK A01 T03230154  RH  036%=      5-min Rain = 0
KPG1 160242Z 13010KT 32/15 A30 RMK A01 T03230153  RH  036%=      5-min Rain = 0
KPG1 160243Z 12009KT 32/15 A30 RMK A01 T03230153  RH  036%=      5-min Rain = 0
KPG1 160244Z 11009KT 32/15 A30 RMK A01 T03230153  RH  036%=      5-min Rain = 0
KPG1 160245Z 12007KT 32/15 A30 RMK A01 T03230153  RH  036%=      5-min Rain = 0
KPG1 160246Z 12007KT 32/15 A30 RMK A01 T03230153  RH  036%=      5-min Rain = 0
KPG1 160247Z 11007KT 32/15 A30 RMK A01 T03230154  RH  036%=      5-min Rain = 0
KPG1 160248Z 12007KT 32/15 A30 RMK A01 T03230154  RH  036%=      5-min Rain = 0
KPG1 160249Z 11005KT 32/15 A30 RMK A01 T03220153  RH  036%=      5-min Rain = 0
KPG1 160250Z 12004KT 32/15 A30 RMK A01 T03220153  RH  036%=      5-min Rain = 0
KPG1 160251Z 11003KT 32/15 A30 RMK A01 T03210154  RH  036%=      5-min Rain = 0
KPG1 160252Z 11003KT 32/15 A30 RMK A01 T03210153  RH  037%=      5-min Rain = 0
KPG1 160253Z 11004KT 32/15 A30 RMK A01 T03200153  RH  037%=      5-min Rain = 0
KPG1 160254Z 13004KT 32/15 A30 RMK A01 T03200153  RH  037%=      5-min Rain = 0
KPG1 160255Z 12004KT 32/15 A30 RMK A01 T03200153  RH  037%=      5-min Rain = 0
KPG1 160256Z 12006KT 32/15 A3001 RMK A01 T03200153  RH  036%=      5-min Rain = 0
KPG1 160257Z 12006KT 32/15 A3001 RMK A01 T03200152  RH  036%=      5-min Rain = 0
KPG1 160258Z 12005KT 32/15 A3001 RMK A01 T03200152  RH  036%=      5-min Rain = 0
KPG1 160259Z 12006KT 32/15 A3001 RMK A01 T03200152  RH  036%=      5-min Rain = 0
KPG1 160300Z 11006KT 32/15 A3001 RMK A01 T03200152  RH  036%=      5-min Rain = 0
KPG1 160301Z 13004KT 32/15 A3001 RMK A01 T03200152  RH  036%=      5-min Rain = 0
KPG1 160302Z 12004KT 32/15 A3001 RMK A01 T03200152  RH  036%=      5-min Rain = 0
KPG1 160303Z 13004KT 32/15 A3001 RMK A01 T03210152  RH  036%=      5-min Rain = 0
KPG1 160304Z 14003KT 32/15 A3001 RMK A01 T03210152  RH  036%=      5-min Rain = 0
KPG1 160305Z 12003KT 32/15 A3001 RMK A01 T03200153  RH  036%=      5-min Rain = 0
KPG1 160306Z 11002KT 32/15 A3001 RMK A01 T03200153  RH  037%=      5-min Rain = 0
KPG1 160307Z 12004KT 32/15 A3001 RMK A01 T03190152  RH  037%=      5-min Rain = 0
KPG1 160308Z 12003KT 32/15 A3001 RMK A01 T03190152  RH  037%=      5-min Rain = 0
KPG1 160309Z 12003KT 32/15 A3001 RMK A01 T03180152  RH  037%=      5-min Rain = 0
KPG1 160310Z 13004KT 32/15 A3001 RMK A01 T03180152  RH  037%=      5-min Rain = 0
KPG1 160311Z 12004KT 32/15 A3001 RMK A01 T03170151  RH  037%=      5-min Rain = 0
KPG1 160312Z 14002KT 32/15 A3001 RMK A01 T03180152  RH  037%=      5-min Rain = 0
KPG1 160313Z 17002KT 32/15 A3001 RMK A01 T03170152  RH  037%=      5-min Rain = 0
KPG1 160314Z 16002KT 32/15 A3001 RMK A01 T03170153  RH  037%=      5-min Rain = 0
KPG1 160315Z 17002KT 32/15 A3001 RMK A01 T03170152  RH  037%=      5-min Rain = 0
KPG1 160316Z 17002KT 32/15 A3001 RMK A01 T03170152  RH  037%=      5-min Rain = 0
KPG1 160317Z 17002KT 32/15 A3001 RMK A01 T03160152  RH  037%=      5-min Rain = 0
KPG1 160318Z 17002KT 32/15 A3001 RMK A01 T03160153  RH  037%=      5-min Rain = 0
KPG1 160319Z 18002KT 32/15 A3001 RMK A01 T03160153  RH  037%=      5-min Rain = 0
KPG1 160320Z 18002KT 32/15 A3001 RMK A01 T03160153  RH  037%=      5-min Rain = 0
KPG1 160321Z 17002KT 32/15 A3001 RMK A01 T03150152  RH  037%=      5-min Rain = 0
KPG1 160322Z 17002KT 32/15 A3001 RMK A01 T03150152  RH  037%=      5-min Rain = 0
KPG1 160323Z 17002KT 32/15 A3001 RMK A01 T03150152  RH  037%=      5-min Rain = 0
KPG1 160324Z 18001KT 32/15 A3001 RMK A01 T03150154  RH  038%=      5-min Rain = 0
KPG1 160325Z 19001KT 32/15 A3001 RMK A01 T03150153  RH  038%=      5-min Rain = 0
KPG1 160326Z 19001KT 32/15 A3001 RMK A01 T03150153  RH  038%=      5-min Rain = 0
KPG1 160327Z 19001KT 31/15 A3001 RMK A01 T03140153  RH  038%=      5-min Rain = 0
KPG1 160328Z 21001KT 31/15 A3001 RMK A01 T03140153  RH  038%=      5-min Rain = 0
KPG1 160329Z 21001KT 31/15 A3001 RMK A01 T03130153  RH  038%=      5-min Rain = 0
KPG1 160330Z 24000KT 31/15 A3001 RMK A01 T03130153  RH  038%=      5-min Rain = 0
KPG1 160331Z 25000KT 31/15 A3001 RMK A01 T03130153  RH  038%=      5-min Rain = 0
KPG1 160332Z 00000KT 31/15 A3001 RMK A01 T03130152  RH  038%=      5-min Rain = 0
KPG1 160333Z 00000KT 31/15 A3001 RMK A01 T03120153  RH  038%=      5-min Rain = 0
KPG1 160334Z 00000KT 31/15 A3001 RMK A01 T03130153  RH  038%=      5-min Rain = 0
KPG1 160335Z 00000KT 31/15 A3001 RMK A01 T03120153  RH  038%=      5-min Rain = 0
KPG1 160336Z 00000KT 31/15 A3001 RMK A01 T03120154  RH  038%=      5-min Rain = 0
KPG1 160337Z 00000KT 31/15 A3001 RMK A01 T03110152  RH  038%=      5-min Rain = 0
KPG1 160338Z 00000KT 31/15 A3001 RMK A01 T03110152  RH  038%=      5-min Rain = 0
KPG1 160339Z 00001KT 31/15 A3001 RMK A01 T03110153  RH  039%=      5-min Rain = 0
KPG1 160340Z 00000KT 31/15 A3001 RMK A01 T03110153  RH  039%=      5-min Rain = 0
KPG1 160341Z 00000KT 31/15 A3001 RMK A01 T03100153  RH  039%=      5-min Rain = 0
KPG1 160342Z 27000KT 31/15 A3001 RMK A01 T03100153  RH  039%=      5-min Rain = 0
KPG1 160343Z 27000KT 31/15 A3001 RMK A01 T03100152  RH  038%=      5-min Rain = 0
KPG1 160344Z 00000KT 31/15 A3001 RMK A01 T03100153  RH  039%=      5-min Rain = 0
KPG1 160345Z 00000KT 31/15 A3001 RMK A01 T03100152  RH  038%=      5-min Rain = 0
KPG1 160346Z 00000KT 31/15 A3001 RMK A01 T03110152  RH  038%=      5-min Rain = 0
KPG1 160347Z 00000KT 31/15 A3001 RMK A01 T03110152  RH  038%=      5-min Rain = 0
KPG1 160348Z 00000KT 31/15 A3001 RMK A01 T03110153  RH  038%=      5-min Rain = 0
KPG1 160349Z 00000KT 31/16 A3001 RMK A01 T03100157  RH  040%=      5-min Rain = 0
KPG1 160350Z 00000KT 31/16 A3001 RMK A01 T03070156  RH  040%=      5-min Rain = 0
KPG1 160351Z 00000KT 30/16 A3001 RMK A01 T03040156  RH  041%=      5-min Rain = 0
KPG1 160352Z 03001KT 30/16 A3001 RMK A01 T03020157  RH  041%=      5-min Rain = 0
KPG1 160353Z 04002KT 30/16 A3001 RMK A01 T02990156  RH  042%=      5-min Rain = 0
KPG1 160354Z 03002KT 30/16 A3001 RMK A01 T02980155  RH  042%=      5-min Rain = 0
KPG1 160355Z 04003KT 30/16 A3001 RMK A01 T02970155  RH  042%=      5-min Rain = 0
KPG1 160356Z 05002KT 30/16 A3001 RMK A01 T02970156  RH  042%=      5-min Rain = 0
KPG1 160357Z 06002KT 30/16 A3002 RMK A01 T02960157  RH  043%=      5-min Rain = 0
KPG1 160358Z 05003KT 30/16 A3002 RMK A01 T02960156  RH  043%=      5-min Rain = 0
KPG1 160359Z 04003KT 30/16 A3002 RMK A01 T02960155  RH  043%=      5-min Rain = 0
KPG1 160400Z 04003KT 30/16 A3002 RMK A01 T02960156  RH  043%=      5-min Rain = 0
KPG1 160401Z 05002KT 30/16 A3002 RMK A01 T02960156  RH  043%=      5-min Rain = 0
KPG1 160402Z 05002KT 30/16 A3002 RMK A01 T02960156  RH  043%=      5-min Rain = 0
KPG1 160403Z 04002KT 30/16 A3002 RMK A01 T02960155  RH  042%=      5-min Rain = 0
KPG1 160404Z 00002KT 30/16 A3002 RMK A01 T02960155  RH  042%=      5-min Rain = 0
KPG1 160405Z 35003KT 30/16 A3002 RMK A01 T02970155  RH  042%=      5-min Rain = 0
KPG1 160406Z 36003KT 30/15 A3002 RMK A01 T02970154  RH  042%=      5-min Rain = 0
KPG1 160407Z 01003KT 30/16 A3002 RMK A01 T02980155  RH  042%=      5-min Rain = 0
KPG1 160408Z 03003KT 30/16 A3002 RMK A01 T02980155  RH  042%=      5-min Rain = 0
KPG1 160409Z 03003KT 30/16 A3002 RMK A01 T02960155  RH  042%=      5-min Rain = 0
KPG1 160410Z 04003KT 30/15 A3002 RMK A01 T02950153  RH  042%=      5-min Rain = 0
KPG1 160411Z 04002KT 30/15 A3002 RMK A01 T02950153  RH  042%=      5-min Rain = 0
KPG1 160412Z 03002KT 30/15 A3002 RMK A01 T02960153  RH  042%=      5-min Rain = 0
KPG1 160413Z 02002KT 30/15 A3002 RMK A01 T02960153  RH  042%=      5-min Rain = 0
KPG1 160414Z 01003KT 30/15 A3002 RMK A01 T02960153  RH  042%=      5-min Rain = 0
KPG1 160415Z 02003KT 30/15 A3002 RMK A01 T02960153  RH  042%=      5-min Rain = 0
KPG1 160416Z 03003KT 30/15 A3002 RMK A01 T02960153  RH  042%=      5-min Rain = 0
KPG1 160417Z 03003KT 30/15 A3002 RMK A01 T02960153  RH  042%=      5-min Rain = 0
KPG1 160418Z 03003KT 30/15 A3002 RMK A01 T02970153  RH  042%=      5-min Rain = 0
KPG1 160419Z 03003KT 30/15 A3002 RMK A01 T02960153  RH  042%=      5-min Rain = 0
KPG1 160420Z 03003KT 30/15 A3002 RMK A01 T02960153  RH  042%=      5-min Rain = 0
KPG1 160421Z 03003KT 30/16 A3003 RMK A01 T02960155  RH  042%=      5-min Rain = 0
KPG1 160422Z 04003KT 29/15 A3003 RMK A01 T02940153  RH  042%=      5-min Rain = 0
KPG1 160423Z 04004KT 29/15 A3003 RMK A01 T02940154  RH  042%=      5-min Rain = 0
KPG1 160424Z 04004KT 29/15 A3003 RMK A01 T02940153  RH  042%=      5-min Rain = 0
KPG1 160425Z 02005KT 29/15 A3003 RMK A01 T02940153  RH  042%=      5-min Rain = 0
KPG1 160426Z 02005KT 29/15 A3003 RMK A01 T02940153  RH  042%=      5-min Rain = 0
KPG1 160427Z 02005KT 30/15 A3003 RMK A01 T02950152  RH  042%=      5-min Rain = 0
KPG1 160428Z 02005KT 30/15 A3002 RMK A01 T02960153  RH  042%=      5-min Rain = 0
KPG1 160429Z 02005KT 30/15 A3002 RMK A01 T02970153  RH  042%=      5-min Rain = 0
KPG1 160430Z 02005KT 30/15 A3002 RMK A01 T02970153  RH  042%=      5-min Rain = 0
KPG1 160431Z 04005KT 30/15 A3002 RMK A01 T02970154  RH  042%=      5-min Rain = 0
KPG1 160432Z 04005KT 30/15 A3002 RMK A01 T02960154  RH  042%=      5-min Rain = 0
KPG1 160433Z 03005KT 30/16 A3002 RMK A01 T02950155  RH  043%=      5-min Rain = 0
KPG1 160434Z 02005KT 29/16 A3002 RMK A01 T02940155  RH  043%=      5-min Rain = 0
KPG1 160435Z 03005KT 29/16 A3002 RMK A01 T02930155  RH  043%=      5-min Rain = 0
KPG1 160436Z 03006KT 29/16 A3002 RMK A01 T02920155  RH  044%=      5-min Rain = 0
KPG1 160437Z 02006KT 29/16 A3002 RMK A01 T02910156  RH  044%=      5-min Rain = 0
KPG1 160438Z 01007KT 29/16 A3002 RMK A01 T02910156  RH  044%=      5-min Rain = 0
KPG1 160439Z 00007KT 29/16 A3002 RMK A01 T02920155  RH  044%=      5-min Rain = 0
KPG1 160440Z 36006KT 30/16 A3002 RMK A01 T02950156  RH  043%=      5-min Rain = 0
KPG1 160441Z 35007KT 30/16 A3002 RMK A01 T02960156  RH  043%=      5-min Rain = 0
KPG1 160442Z 36006KT 30/16 A3002 RMK A01 T02960156  RH  043%=      5-min Rain = 0
KPG1 160443Z 00006KT 30/16 A3002 RMK A01 T02960156  RH  043%=      5-min Rain = 0
KPG1 160444Z 02004KT 30/16 A3002 RMK A01 T02970157  RH  043%=      5-min Rain = 0
KPG1 160445Z 04005KT 30/16 A3002 RMK A01 T02950157  RH  043%=      5-min Rain = 0
KPG1 160446Z 03005KT 29/16 A3002 RMK A01 T02930157  RH  044%=      5-min Rain = 0
KPG1 160447Z 01004KT 29/16 A3002 RMK A01 T02930157  RH  044%=      5-min Rain = 0
KPG1 160448Z 01005KT 29/16 A3002 RMK A01 T02930158  RH  044%=      5-min Rain = 0
KPG1 160449Z 05004KT 29/16 A3002 RMK A01 T02930158  RH  044%=      5-min Rain = 0
KPG1 160450Z 07004KT 29/16 A3002 RMK A01 T02920158  RH  044%=      5-min Rain = 0
KPG1 160451Z 05005KT 29/16 A3003 RMK A01 T02910157  RH  044%=      5-min Rain = 0
KPG1 160452Z 04006KT 29/16 A3003 RMK A01 T02910157  RH  044%=      5-min Rain = 0
KPG1 160453Z 06004KT 29/16 A3003 RMK A01 T02910157  RH  044%=      5-min Rain = 0
KPG1 160454Z 07004KT 29/16 A3003 RMK A01 T02920156  RH  044%=      5-min Rain = 0
KPG1 160455Z 05004KT 29/16 A3003 RMK A01 T02940155  RH  043%=      5-min Rain = 0
KPG1 160456Z 03003KT 30/16 A3003 RMK A01 T02950156  RH  043%=      5-min Rain = 0
KPG1 160457Z 01004KT 30/16 A3003 RMK A01 T02960157  RH  043%=      5-min Rain = 0
KPG1 160458Z 01003KT 30/16 A3003 RMK A01 T02960157  RH  043%=      5-min Rain = 0
KPG1 160459Z 05003KT 30/16 A3003 RMK A01 T02960157  RH  043%=      5-min Rain = 0

Page generated in 0.0717 seconds.